Data for 09/08/2011

Time Sea-Level Adjusted Pressure Absolute Pressure Temperature Relative Humidity Dew Point Precipitation   
(mb) (inHg) (mb) (inHg) (C) (F) (%) (C) (F) (mm) (in)
00:01 1030 30.42 859 25.37 13.1 55.6 50 3.1 37.6 -88.3 -3.476
00:02 1030 30.42 859 25.37 13.2 55.7 50 3.1 37.6 -88.3 -3.476
00:03 1030 30.42 859 25.37 13.2 55.8 50 3.1 37.6 -88.3 -3.476
00:04 1030 30.42 859 25.37 13.3 55.9 49 3 37.4 -88.3 -3.476
00:05 1030 30.42 859 25.37 13.3 55.9 49 2.9 37.3 -88.3 -3.476
00:06 1030 30.42 859 25.37 13.3 56 49 2.9 37.2 -88.3 -3.476
00:07 1030 30.42 859 25.37 13.5 56.3 49 3 37.4 -88.3 -3.476
00:08 1030 30.42 859 25.37 13.5 56.3 49 2.9 37.3 -88.4 -3.48
00:09 1030 30.42 859 25.37 13.6 56.5 49 3.1 37.6 -88.4 -3.48
00:10 1030 30.42 859 25.37 13.6 56.4 49 3.1 37.6 -88.4 -3.48
00:11 1030 30.42 859 25.37 13.5 56.3 49 3 37.4 -88.4 -3.48
00:12 1030 30.42 859 25.37 13.5 56.4 49 3 37.5 -88.4 -3.48
00:13 1030 30.42 859 25.37 13.6 56.4 49 3 37.4 -88.4 -3.48
00:14 1030 30.42 859 25.37 13.6 56.5 49 3.1 37.6 -88.4 -3.48
00:15 1030 30.42 859 25.37 13.6 56.4 49 3.2 37.7 -88.4 -3.48
00:16 1030 30.42 859 25.37 13.5 56.3 49 3.1 37.5 -88.4 -3.48
00:17 1030 30.42 859 25.37 13.5 56.3 49 3.1 37.6 -88.4 -3.48
00:18 1030 30.42 859 25.37 13.4 56.2 50 3.3 38 -88.4 -3.48
00:19 1030 30.42 859 25.37 13.4 56.1 50 3.2 37.8 -88.4 -3.48
00:20 1030 30.42 859 25.37 13.3 55.9 50 3.3 37.9 -88.4 -3.48
00:21 1030 30.42 859 25.37 13.1 55.7 51 3.4 38.1 -88.4 -3.48
00:22 1030 30.42 859 25.37 13 55.3 52 3.3 37.9 -88.4 -3.48
00:23 1030 30.42 859 25.37 12.9 55.2 52 3.4 38.1 -88.4 -3.48
00:24 1030 30.42 859 25.37 12.8 55 52 3.3 37.9 -88.4 -3.48
00:25 1030 30.42 859 25.37 12.7 54.9 52 3.2 37.8 -88.4 -3.48
00:26 1030 30.42 859 25.37 12.7 54.8 53 3.3 38 -88.4 -3.48
00:27 1030 30.42 859 25.37 12.7 54.9 52 3.3 37.9 -88.4 -3.48
00:28 1030 30.42 859 25.37 12.8 55 53 3.4 38 -88.4 -3.48
00:29 1030 30.42 859 25.37 12.8 55 53 3.4 38.1 -88.4 -3.48
00:30 1030 30.42 859 25.37 12.8 55 53 3.4 38.1 -88.4 -3.48
00:31 1030 30.42 859 25.37 12.8 55.1 52 3.4 38.1 -88.4 -3.48
00:32 1030 30.42 859 25.37 12.8 55.1 53 3.5 38.2 -88.4 -3.48
00:33 1030 30.42 859 25.37 12.8 55.1 53 3.5 38.2 -88.4 -3.48
00:34 1030 30.42 859 25.37 12.8 55 52 3.3 38 -88.4 -3.48
00:35 1030 30.42 859 25.37 12.9 55.2 51 3.1 37.6 -88.4 -3.48
00:36 1030 30.42 859 25.37 13 55.4 51 3.3 37.9 -88.4 -3.48
00:37 1030 30.42 859 25.37 13 55.4 51 3.2 37.7 -88.4 -3.48
00:38 1030 30.42 859 25.37 13.1 55.6 50 3 37.4 -88.4 -3.48
00:39 1030 30.42 859 25.37 13.4 56 49 2.9 37.2 -88.4 -3.48
00:40 1030 30.42 859 25.37 13.6 56.4 48 3 37.4 -88.4 -3.48
00:41 1030 30.42 859 25.37 13.7 56.7 48 3.1 37.5 -88.4 -3.48
00:42 1030 30.42 859 25.37 13.8 56.8 49 3.2 37.8 -88.4 -3.48
00:43 1030 30.42 859 25.37 13.7 56.6 49 3.3 37.9 -88.4 -3.48
00:44 1030 30.42 859 25.37 13.5 56.3 50 3.3 38 -88.4 -3.48
00:45 1030 30.42 859 25.37 13.3 56 51 3.4 38.2 -88.4 -3.48
00:46 1030 30.42 859 25.37 13.1 55.5 52 3.5 38.3 -88.4 -3.48
00:47 1030 30.42 859 25.37 12.9 55.2 52 3.4 38.1 -88.4 -3.48
00:48 1030 30.42 859 25.37 12.8 55 52 3.3 37.9 -88.4 -3.48
00:49 1030 30.42 859 25.37 12.7 54.9 53 3.4 38.1 -88.4 -3.48
00:50 1030 30.42 859 25.37 12.7 54.9 52 3.1 37.7 -88.4 -3.48
00:51 1030 30.42 859 25.37 12.8 55 52 3.2 37.8 -88.4 -3.48
00:52 1030 30.42 859 25.37 12.9 55.1 52 3.3 37.9 -88.4 -3.48
00:53 1030 30.42 859 25.37 12.9 55.2 51 3.2 37.8 -88.4 -3.48
00:54 1030 30.42 859 25.37 13 55.3 51 3.2 37.7 -88.4 -3.48
00:55 1030 30.42 859 25.37 12.9 55.3 51 3.2 37.8 -88.4 -3.48
00:56 1030 30.42 859 25.37 12.9 55.3 51 3.1 37.6 -88.4 -3.48
00:57 1030 30.42 859 25.37 13.1 55.5 51 3.1 37.6 -88.4 -3.48
00:58 1030 30.42 859 25.37 13.1 55.6 50 3 37.4 -88.4 -3.48
00:59 1030 30.42 859 25.37 13.2 55.8 50 3.1 37.5 -88.4 -3.48
01:00 1030 30.42 859 25.37 13.3 55.9 50 3.2 37.7 -88.4 -3.48
01:01 1030 30.42 859 25.37 13.2 55.7 50 3.1 37.7 -88.4 -3.48
01:02 1030 30.42 859 25.37 13.1 55.5 51 3.1 37.6 -88.4 -3.48
01:03 1030 30.42 859 25.37 13 55.5 50 3 37.4 -88.4 -3.48
01:04 1030 30.42 859 25.37 13.1 55.6 50 3 37.5 -88.4 -3.48
01:05 1030 30.42 859 25.37 13.2 55.8 50 3 37.3 -88.4 -3.48
01:06 1030 30.42 859 25.37 13.3 56 49 3 37.4 -88.4 -3.48
01:07 1030 30.42 859 25.37 13.4 56.2 49 2.9 37.2 -88.4 -3.48
01:08 1030 30.42 859 25.37 13.6 56.4 48 2.9 37.3 -88.4 -3.48
01:09 1030 30.42 859 25.37 13.6 56.5 48 3 37.4 -88.4 -3.48
01:10 1030 30.42 859 25.37 13.6 56.4 49 3 37.4 -88.5 -3.484
01:11 1030 30.42 859 25.37 13.5 56.2 49 3.1 37.6 -88.4 -3.48
01:12 1030 30.42 859 25.37 13.3 55.9 50 3.1 37.6 -88.5 -3.484
01:13 1030 30.42 859 25.37 13.1 55.5 51 3.3 38 -88.4 -3.48
01:14 1030 30.42 859 25.37 12.9 55.1 51 3.1 37.6 -88.4 -3.48
01:15 1030 30.42 859 25.37 12.8 55.1 51 3.1 37.5 -88.5 -3.484
01:16 1030 30.42 859 25.37 12.8 55 51 3 37.3 -88.5 -3.484
01:17 1030 30.42 859 25.37 12.9 55.2 50 2.9 37.1 -88.5 -3.484
01:18 1030 30.42 859 25.37 13 55.5 49 2.7 36.9 -88.5 -3.484
01:19 1030 30.42 859 25.37 13.3 55.9 49 2.8 37.1 -88.5 -3.484
01:20 1030 30.42 859 25.37 13.5 56.3 48 2.8 37 -88.5 -3.484
01:21 1030 30.42 859 25.37 13.6 56.5 48 2.9 37.1 -88.5 -3.484
01:22 1030 30.42 859 25.37 13.7 56.7 47 2.8 37 -88.5 -3.484
01:23 1030 30.42 859 25.37 13.9 57 47 2.8 37 -88.5 -3.484
01:24 1030 30.42 859 25.37 14 57.2 47 2.9 37.2 -88.5 -3.484
01:25 1030 30.42 859 25.37 14.1 57.3 47 2.9 37.3 -88.5 -3.484
01:26 1030 30.42 859 25.37 14.2 57.5 46 2.8 37.1 -88.5 -3.484
01:27 1030 30.42 859 25.37 14.3 57.8 46 3 37.4 -88.5 -3.484
01:28 1030 30.42 859 25.37 14.4 57.8 46 3 37.3 -88.5 -3.484
01:29 1030 30.42 859 25.37 14.4 57.9 46 2.9 37.3 -88.5 -3.484
01:30 1030 30.42 859 25.37 14.5 58 46 3.1 37.6 -88.5 -3.484
01:31 1030 30.42 859 25.37 14.5 58 46 3 37.5 -88.5 -3.484
01:32 1030 30.42 859 25.37 14.6 58.2 45 2.8 37 -88.5 -3.484
01:33 1030 30.42 859 25.37 14.7 58.4 45 2.9 37.2 -88.5 -3.484
01:34 1030 30.42 859 25.37 14.7 58.4 45 2.9 37.2 -88.5 -3.484
01:35 1030 30.42 859 25.37 14.7 58.4 45 2.9 37.2 -88.5 -3.484
01:36 1030 30.42 859 25.37 14.6 58.3 45 2.8 37.1 -88.5 -3.484
01:37 1030 30.42 859 25.37 14.6 58.2 45 3 37.4 -88.5 -3.484
01:38 1030 30.42 859 25.37 14.4 58 45 2.8 37.1 -88.5 -3.484
01:39 1030 30.42 859 25.37 14.4 58 45 2.8 37.1 -88.5 -3.484
01:40 1030 30.42 859 25.37 14.5 58.1 45 2.8 37 -88.5 -3.484
01:41 1030 30.42 859 25.37 14.6 58.2 46 3.1 37.5 -88.5 -3.484
01:42 1030 30.42 859 25.37 14.2 57.5 46 2.9 37.3 -88.5 -3.484
01:43 1030 30.42 859 25.37 13.9 56.9 47 2.9 37.2 -88.5 -3.484
01:44 1030 30.42 859 25.37 13.7 56.7 47 2.8 37.1 -88.5 -3.484
01:45 1030 30.42 859 25.37 13.6 56.6 48 2.8 37 -88.5 -3.484
01:46 1030 30.42 859 25.37 13.6 56.5 47 2.7 36.9 -88.4 -3.48
01:47 1030 30.42 859 25.37 13.6 56.5 48 2.8 37.1 -88.4 -3.48
01:48 1030 30.42 859 25.37 13.6 56.4 49 3.1 37.6 -88.4 -3.48
01:49 1030 30.42 859 25.37 13.3 56 49 3 37.4 -88.4 -3.48
01:50 1030 30.42 859 25.37 13 55.4 50 3 37.4 -88.4 -3.48
01:51 1030 30.42 859 25.37 12.7 54.9 51 2.9 37.3 -88.4 -3.48
01:52 1030 30.42 859 25.37 12.5 54.4 52 2.8 37.1 -88.4 -3.48
01:53 1030 30.42 859 25.37 12.3 54.1 52 2.8 37.1 -88.4 -3.48
01:54 1030 30.42 859 25.37 12.1 53.9 52 2.7 36.8 -88.4 -3.48
01:55 1030 30.42 859 25.37 12 53.6 52 2.7 36.8 -88.4 -3.48
01:56 1030 30.42 859 25.37 12 53.5 53 2.7 36.8 -88.4 -3.48
01:57 1030 30.42 859 25.37 12 53.5 53 2.7 36.9 -88.4 -3.48
01:58 1030 30.42 859 25.37 11.9 53.3 53 2.7 36.9 -88.5 -3.484
01:59 1030 30.42 859 25.37 11.8 53.2 54 2.7 36.9 -88.5 -3.484
02:00 1030 30.42 859 25.37 11.8 53.2 54 2.8 37 -88.5 -3.484
02:01 1030 30.42 859 25.37 11.7 53.1 54 2.8 37.1 -88.5 -3.484
02:02 1030 30.42 859 25.37 11.7 53.1 54 2.8 37 -88.5 -3.484
02:03 1030 30.42 859 25.37 11.8 53.2 54 2.7 36.9 -88.5 -3.484
02:04 1030 30.42 859 25.37 11.8 53.3 54 2.9 37.2 -88.5 -3.484
02:05 1030 30.42 859 25.37 11.9 53.4 54 2.9 37.2 -88.5 -3.484
02:06 1030 30.42 859 25.37 11.9 53.4 53 2.8 37 -88.5 -3.484
02:07 1030 30.42 859 25.37 12 53.5 54 2.9 37.2 -88.5 -3.484
02:08 1030 30.42 859 25.37 12 53.5 54 2.9 37.2 -88.5 -3.484
02:09 1030 30.42 859 25.37 11.9 53.5 53 2.8 37 -88.5 -3.484
02:10 1030 30.42 859 25.37 12 53.6 53 2.8 37.1 -88.5 -3.484
02:11 1030 30.42 859 25.37 12.1 53.7 53 2.9 37.2 -88.5 -3.484
02:12 1030 30.42 859 25.37 12 53.6 53 2.7 36.9 -88.5 -3.484
02:13 1030 30.42 859 25.37 11.9 53.4 53 2.7 36.8 -88.6 -3.488
02:14 1030 30.42 859 25.37 11.9 53.4 53 2.6 36.7 -88.6 -3.488
02:15 1030 30.42 859 25.37 11.9 53.3 53 2.5 36.6 -88.6 -3.488
02:16 1030 30.42 859 25.37 11.7 53.1 54 2.7 36.9 -88.6 -3.488
02:17 1030 30.42 859 25.37 11.6 52.9 53 2.5 36.4 -88.6 -3.488
02:18 1030 30.42 859 25.37 11.6 52.8 54 2.7 36.8 -88.6 -3.488
02:19 1030 30.42 859 25.37 11.4 52.6 55 2.8 37.1 -88.6 -3.488
02:20 1030 30.42 859 25.37 11.2 52.2 56 2.8 37.1 -88.6 -3.488
02:21 1030 30.42 859 25.37 11 51.8 57 2.8 37.1 -88.6 -3.488
02:22 1030 30.42 859 25.37 10.9 51.6 55 2.4 36.3 -88.6 -3.488
02:23 1030 30.42 859 25.37 11 51.8 55 2.4 36.4 -88.6 -3.488
02:24 1030 30.42 859 25.37 11.1 51.9 56 2.6 36.6 -88.6 -3.488
02:25 1030 30.42 859 25.37 11 51.8 55 2.4 36.4 -88.6 -3.488
02:26 1030 30.42 859 25.37 10.9 51.7 55 2.4 36.3 -88.6 -3.488
02:27 1030 30.42 859 25.37 10.9 51.6 56 2.4 36.3 -88.6 -3.488
02:28 1030 30.42 859 25.37 10.8 51.5 56 2.4 36.3 -88.6 -3.488
02:29 1030 30.42 859 25.37 10.8 51.4 56 2.4 36.2 -88.6 -3.488
02:30 1030 30.42 859 25.37 10.7 51.2 56 2.3 36.1 -88.7 -3.492
02:31 1030 30.42 859 25.37 10.5 51 57 2.5 36.5 -88.7 -3.492
02:32 1030 30.42 859 25.37 10.4 50.7 57 2.4 36.3 -88.7 -3.492
02:33 1030 30.42 859 25.37 10.3 50.6 58 2.4 36.3 -88.7 -3.492
02:34 1030 30.42 859 25.37 10.2 50.4 58 2.3 36.1 -88.7 -3.492
02:35 1030 30.42 859 25.37 10.3 50.5 58 2.5 36.5 -88.7 -3.492
02:36 1030 30.42 859 25.37 10.2 50.3 58 2.4 36.4 -88.7 -3.492
02:37 1030 30.42 859 25.37 10 50.1 59 2.5 36.5 -88.7 -3.492
02:38 1030 30.42 859 25.37 9.9 49.9 60 2.5 36.5 -88.7 -3.492
02:39 1030 30.42 859 25.37 9.8 49.6 61 2.6 36.6 -88.7 -3.492
02:40 1030 30.42 859 25.37 9.6 49.3 62 2.6 36.7 -88.7 -3.492
02:41 1030 30.42 859 25.37 9.4 49 61 2.4 36.3 -88.7 -3.492
02:42 1030 30.42 859 25.37 9.4 49 61 2.4 36.3 -88.7 -3.492
02:43 1030 30.42 859 25.37 9.5 49 61 2.5 36.4 -88.8 -3.496
02:44 1030 30.42 859 25.37 9.4 48.8 61 2.3 36.1 -88.8 -3.496
02:45 1030 30.42 859 25.37 9.6 49.3 60 2.3 36.1 -88.8 -3.496
02:46 1030 30.42 859 25.37 9.7 49.4 60 2.4 36.4 -88.8 -3.496
02:47 1030 30.42 859 25.37 9.6 49.3 60 2.3 36.2 -88.8 -3.496
02:48 1030 30.42 859 25.37 9.5 49.1 62 2.5 36.6 -88.8 -3.496
02:49 1030 30.42 859 25.37 9.3 48.7 63 2.5 36.5 -88.8 -3.496
02:50 1030 30.42 859 25.37 9 48.2 63 2.4 36.4 -88.8 -3.496
02:51 1030 30.42 859 25.37 8.9 48 64 2.4 36.3 -88.8 -3.496
02:52 1030 30.42 859 25.37 8.8 47.8 64 2.4 36.3 -88.8 -3.496
02:53 1030 30.42 859 25.37 8.8 47.8 64 2.3 36.1 -88.8 -3.496
02:54 1030 30.42 859 25.37 8.8 47.8 64 2.5 36.4 -88.8 -3.496
02:55 1030 30.42 859 25.37 8.7 47.6 65 2.5 36.5 -88.8 -3.496
02:56 1030 30.42 859 25.37 8.5 47.3 66 2.4 36.4 -88.8 -3.496
02:57 1030 30.42 859 25.37 8.4 47.1 66 2.5 36.5 -88.9 -3.5
02:58 1030 30.42 859 25.37 8.3 46.9 67 2.5 36.4 -88.9 -3.5
02:59 1030 30.42 859 25.37 8.2 46.7 67 2.4 36.4 -88.9 -3.5
03:00 1030 30.42 859 25.37 8.1 46.5 67 2.4 36.3 -88.9 -3.5
03:01 1030 30.42 859 25.37 8 46.4 68 2.4 36.4 -88.9 -3.5
03:02 1030 30.42 859 25.37 7.9 46.3 68 2.4 36.3 -88.9 -3.5
03:03 1030 30.42 859 25.37 8 46.3 67 2.2 36 -88.9 -3.5
03:04 1030 30.42 859 25.37 8.1 46.5 66 2.2 36 -88.9 -3.5
03:05 1030 30.42 859 25.37 8.2 46.8 65 2.1 35.7 -88.9 -3.5
03:06 1030 30.42 859 25.37 8.6 47.4 63 2.1 35.7 -88.9 -3.5
03:07 1030 30.42 859 25.37 8.9 48 62 2.1 35.8 -89 -3.504
03:08 1030 30.42 859 25.37 9.1 48.4 62 2.2 36 -89 -3.504
03:09 1030 30.42 859 25.37 9.2 48.6 62 2.3 36.1 -89 -3.504
03:10 1030 30.42 859 25.37 9.2 48.6 62 2.3 36.1 -89 -3.504
03:11 1030 30.42 859 25.37 9.3 48.7 62 2.4 36.2 -89 -3.504
03:12 1030 30.42 859 25.37 9.3 48.7 62 2.4 36.4 -89 -3.504
03:13 1030 30.42 859 25.37 9.3 48.7 62 2.4 36.3 -89 -3.504
03:14 1030 30.42 859 25.37 9.3 48.8 61 2.3 36.2 -89 -3.504
03:15 1030 30.42 859 25.37 9.4 49 61 2.3 36.2 -89 -3.504
03:16 1030 30.42 859 25.37 9.6 49.2 61 2.4 36.2 -89 -3.504
03:17 1030 30.42 859 25.37 9.6 49.2 61 2.5 36.4 -89 -3.504
03:18 1030 30.42 859 25.37 9.5 49.1 61 2.5 36.5 -89 -3.504
03:19 1030 30.42 859 25.37 9.4 48.9 62 2.6 36.7 -89 -3.504
03:20 1030 30.42 859 25.37 9.2 48.5 63 2.6 36.7 -89.1 -3.508
03:21 1030 30.42 859 25.37 9 48.2 64 2.6 36.7 -89.1 -3.508
03:22 1030 30.42 859 25.37 8.8 47.9 65 2.5 36.6 -89.1 -3.508
03:23 1030 30.42 859 25.37 8.7 47.7 65 2.4 36.4 -89.1 -3.508
03:24 1030 30.42 859 25.37 8.7 47.6 64 2.3 36.1 -89.1 -3.508
03:25 1030 30.42 859 25.37 8.7 47.7 63 2.2 35.9 -89.1 -3.508
03:26 1030 30.42 859 25.37 8.9 48.1 64 2.5 36.4 -89.1 -3.508
03:27 1030 30.42 859 25.37 8.9 48 64 2.4 36.3 -89.1 -3.508
03:28 1030 30.42 859 25.37 8.8 47.8 63 2.3 36.1 -89.1 -3.508
03:29 1030 30.42 859 25.37 8.8 47.9 62 2 35.5 -89.1 -3.508
03:30 1030 30.42 859 25.37 9 48.2 62 2.2 36 -89.1 -3.508
03:31 1030 30.42 859 25.37 9 48.2 63 2.4 36.3 -89.1 -3.508
03:32 1030 30.42 859 25.37 8.9 48 63 2.2 36 -89.1 -3.508
03:33 1030 30.42 859 25.37 8.9 48 63 2.2 36 -89.2 -3.512
03:34 1030 30.42 859 25.37 9 48.2 61 2 35.6 -89.2 -3.512
03:35 1030 30.42 859 25.37 9.2 48.5 61 2 35.6 -89.2 -3.512
03:36 1030 30.42 859 25.37 9.2 48.6 61 2.1 35.7 -89.2 -3.512
03:37 1030 30.42 859 25.37 9.2 48.5 61 2.1 35.7 -89.2 -3.512
03:38 1030 30.42 859 25.37 9.3 48.7 60 2 35.6 -89.2 -3.512
03:39 1030 30.42 859 25.37 9.3 48.7 61 2.2 36 -89.2 -3.512
03:40 1030 30.42 859 25.37 9.1 48.4 62 2.2 36 -89.2 -3.512
03:41 1030 30.42 859 25.37 9 48.2 63 2.4 36.3 -89.2 -3.512
03:42 1030 30.42 859 25.37 8.8 47.8 64 2.4 36.3 -89.2 -3.512
03:43 1030 30.42 859 25.37 8.6 47.4 65 2.4 36.4 -89.2 -3.512
03:44 1030 30.42 859 25.37 8.3 47 66 2.4 36.4 -89.2 -3.512
03:45 1030 30.42 859 25.37 8.1 46.6 67 2.5 36.4 -89.2 -3.512
03:46 1030 30.42 859 25.37 8 46.3 68 2.5 36.4 -89.2 -3.512
03:47 1030 30.42 859 25.37 7.8 46 68 2.4 36.2 -89.2 -3.512
03:48 1030 30.42 859 25.37 7.7 45.9 69 2.3 36.2 -89.2 -3.512
03:49 1030 30.42 859 25.37 7.6 45.6 69 2.3 36.2 -89.2 -3.512
03:50 1030 30.42 859 25.37 7.4 45.3 70 2.3 36.2 -89.2 -3.512
03:51 1030 30.42 859 25.37 7.3 45.1 71 2.4 36.3 -89.2 -3.512
03:52 1030 30.42 859 25.37 7.3 45.2 69 2.1 35.8 -89.2 -3.512
03:53 1030 30.42 859 25.37 7.6 45.6 68 2.1 35.7 -89.3 -3.516
03:54 1030 30.42 859 25.37 7.8 46 67 2.1 35.7 -89.3 -3.516
03:55 1030 30.42 859 25.37 8 46.4 66 2.1 35.7 -89.3 -3.516
03:56 1030 30.42 859 25.37 8.2 46.7 65 2.1 35.8 -89.3 -3.516
03:57 1030 30.42 859 25.37 8.2 46.8 66 2.3 36.1 -89.3 -3.516
03:58 1030 30.42 859 25.37 8.2 46.7 66 2.2 36 -89.3 -3.516
03:59 1030 30.42 859 25.37 8.1 46.6 67 2.3 36.2 -89.3 -3.516
04:00 1030 30.42 859 25.37 8.1 46.6 67 2.4 36.3 -89.3 -3.516
04:01 1030 30.42 859 25.37 8.1 46.6 67 2.3 36.1 -89.3 -3.516
04:02 1030 30.42 859 25.37 8.2 46.7 66 2.1 35.9 -89.3 -3.516
04:03 1030 30.42 859 25.37 8.4 47.2 64 2.1 35.8 -89.3 -3.516
04:04 1030 30.42 859 25.37 8.7 47.7 62 2 35.5 -89.3 -3.516
04:05 1030 30.42 859 25.37 9.1 48.4 61 2 35.6 -89.3 -3.516
04:06 1030 30.42 859 25.37 9.5 49 60 2.1 35.7 -89.3 -3.516
04:07 1030 30.42 859 25.37 9.7 49.4 59 2.2 35.9 -89.3 -3.516
04:08 1030 30.42 859 25.37 9.7 49.4 62 2.7 36.9 -89.3 -3.516
04:09 1030 30.42 859 25.37 9.1 48.3 65 2.8 37 -89.3 -3.516
04:10 1030 30.42 859 25.37 8.5 47.3 65 2.4 36.4 -89.3 -3.516
04:11 1030 30.42 859 25.37 8.3 46.9 67 2.5 36.5 -89.3 -3.516
04:12 1030 30.42 859 25.37 8.1 46.5 67 2.3 36.1 -89.3 -3.516
04:13 1030 30.42 859 25.37 8.2 46.7 65 2 35.6 -89.3 -3.516
04:14 1030 30.42 859 25.37 8.5 47.2 63 2 35.5 -89.3 -3.516
04:15 1030 30.42 859 25.37 8.8 47.8 62 1.9 35.5 -89.3 -3.516
04:16 1030 30.42 859 25.37 9.2 48.5 60 1.8 35.2 -89.3 -3.516
04:17 1030 30.42 859 25.37 9.5 49.1 59 2 35.6 -89.3 -3.516
04:18 1030 30.42 859 25.37 9.6 49.3 59 2.1 35.8 -89.3 -3.516
04:19 1030 30.42 859 25.37 9.7 49.5 60 2.3 36.1 -89.4 -3.52
04:20 1030 30.42 859 25.37 9.8 49.6 58 1.9 35.4 -89.4 -3.52
04:21 1030 30.42 859 25.37 10 49.9 57 2 35.6 -89.4 -3.52
04:22 1030 30.42 859 25.37 10.1 50.1 57 2.1 35.8 -89.4 -3.52
04:23 1030 30.42 859 25.37 10 50 57 2 35.6 -89.4 -3.52
04:24 1030 30.42 859 25.37 10 50.1 57 1.8 35.3 -89.4 -3.52
04:25 1030 30.42 859 25.37 10.2 50.3 55 1.7 35.1 -89.4 -3.52
04:26 1030 30.42 859 25.37 10.5 50.8 55 1.9 35.4 -89.4 -3.52
04:27 1030 30.42 859 25.37 10.4 50.8 56 2 35.5 -89.4 -3.52
04:28 1030 30.42 859 25.37 10.2 50.4 56 2 35.5 -89.4 -3.52
04:29 1030 30.42 859 25.37 10.1 50.2 57 1.9 35.5 -89.4 -3.52
04:30 1030 30.42 859 25.37 9.9 49.9 58 2.1 35.7 -89.4 -3.52
04:31 1030 30.42 859 25.37 9.7 49.4 59 2.1 35.8 -89.4 -3.52
04:32 1030 30.42 859 25.37 9.4 49 60 2 35.7 -89.4 -3.52
04:33 1030 30.42 859 25.37 9.3 48.7 61 2.1 35.9 -89.4 -3.52
04:34 1030 30.42 859 25.37 9.1 48.4 61 2.1 35.8 -89.4 -3.52
04:35 1030 30.42 859 25.37 8.9 48 62 2.1 35.8 -89.4 -3.52
04:36 1030 30.42 859 25.37 8.7 47.6 64 2.2 36 -89.4 -3.52
04:37 1030 30.42 859 25.37 8.5 47.2 65 2.2 36 -89.4 -3.52
04:38 1030 30.42 859 25.37 8.3 47 65 2.2 36 -89.4 -3.52
04:39 1030 30.42 859 25.37 8.2 46.8 66 2.2 36 -89.4 -3.52
04:40 1030 30.42 859 25.37 8.1 46.6 66 2.2 35.9 -89.4 -3.52
04:41 1030 30.42 859 25.37 8 46.4 67 2.2 36 -89.4 -3.52
04:42 1030 30.42 859 25.37 7.8 46.1 67 2.1 35.9 -89.4 -3.52
04:43 1030 30.42 859 25.37 7.7 45.8 68 2.2 36 -89.4 -3.52
04:44 1030 30.42 859 25.37 7.5 45.5 69 2.1 35.9 -89.4 -3.52
04:45 1030 30.42 859 25.37 7.4 45.2 69 2.1 35.7 -89.4 -3.52
04:46 1030 30.42 859 25.37 7.3 45.1 69 1.9 35.5 -89.4 -3.52
04:47 1030 30.42 859 25.37 7.2 45 69 2 35.6 -89.4 -3.52
04:48 1030 30.42 859 25.37 7.1 44.7 70 2 35.6 -89.4 -3.52
04:49 1030 30.42 859 25.37 6.9 44.3 71 2 35.7 -89.5 -3.524
04:50 1030 30.42 859 25.37 6.7 44.1 72 2 35.6 -89.4 -3.52
04:51 1030 30.42 859 25.37 6.8 44.3 70 1.9 35.3 -89.5 -3.524
04:52 1030 30.42 859 25.37 7 44.6 70 1.9 35.4 -89.5 -3.524
04:53 1030 30.42 859 25.37 7.1 44.8 70 2 35.6 -89.5 -3.524
04:54 1030 30.42 859 25.37 7 44.7 70 1.9 35.5 -89.5 -3.524
04:55 1030 30.42 859 25.37 7 44.6 71 2 35.6 -89.5 -3.524
04:56 1030 30.42 859 25.37 6.9 44.3 71 2 35.6 -89.5 -3.524
04:57 1030 30.42 859 25.37 6.7 44.1 71 1.9 35.4 -89.5 -3.524
04:58 1030 30.42 859 25.37 6.6 43.8 72 1.9 35.5 -89.5 -3.524
04:59 1030 30.42 860 25.4 6.5 43.7 73 2 35.6 -89.5 -3.524
05:00 1030 30.42 860 25.4 6.4 43.6 73 2 35.7 -89.5 -3.524
05:01 1030 30.42 860 25.4 6.4 43.6 74 2.1 35.7 -89.5 -3.524
05:02 1030 30.42 860 25.4 6.4 43.6 74 2.1 35.8 -89.5 -3.524
05:03 1030 30.42 860 25.4 6.5 43.7 74 2.1 35.9 -89.5 -3.524
05:04 1030 30.42 859 25.37 6.5 43.6 74 2.1 35.7 -89.5 -3.524
05:05 1030 30.42 859 25.37 6.4 43.5 74 2.1 35.7 -89.5 -3.524
05:06 1030 30.42 859 25.37 6.4 43.4 74 2 35.6 -89.5 -3.524
05:07 1030 30.42 860 25.4 6.3 43.4 73 1.9 35.5 -89.5 -3.524
05:08 1030 30.42 859 25.37 6.4 43.5 73 1.9 35.4 -89.5 -3.524
05:09 1030 30.42 859 25.37 6.5 43.6 73 1.9 35.5 -89.5 -3.524
05:10 1030 30.42 859 25.37 6.4 43.6 73 2 35.5 -89.5 -3.524
05:11 1030 30.42 859 25.37 6.4 43.6 73 1.9 35.5 -89.5 -3.524
05:12 1030 30.42 859 25.37 6.5 43.6 73 1.9 35.5 -89.5 -3.524
05:13 1030 30.42 859 25.37 6.5 43.7 73 1.9 35.5 -89.5 -3.524
05:14 1030 30.42 859 25.37 6.5 43.8 72 2 35.5 -89.5 -3.524
05:15 1030 30.42 859 25.37 6.5 43.8 73 2.1 35.7 -89.5 -3.524
05:16 1030 30.42 859 25.37 6.5 43.7 73 2.1 35.8 -89.5 -3.524
05:17 1030 30.42 859 25.37 6.4 43.5 74 2.1 35.8 -89.5 -3.524
05:18 1030 30.42 859 25.37 6.2 43.2 74 2 35.7 -89.5 -3.524
05:19 1030 30.42 859 25.37 6.1 43 75 2 35.7 -89.5 -3.524
05:20 1030 30.42 859 25.37 6 42.9 75 2 35.6 -89.6 -3.528
05:21 1030 30.42 859 25.37 6 42.7 75 2 35.5 -89.6 -3.528
05:22 1030 30.42 859 25.37 6 42.7 76 2 35.6 -89.6 -3.528
05:23 1030 30.42 859 25.37 5.9 42.6 76 2 35.5 -89.6 -3.528
05:24 1030 30.42 859 25.37 5.7 42.3 77 1.9 35.5 -89.6 -3.528
05:25 1030 30.42 859 25.37 5.7 42.2 77 1.9 35.5 -89.6 -3.528
05:26 1030 30.42 859 25.37 5.6 42.1 77 2 35.5 -89.6 -3.528
05:27 1030 30.42 859 25.37 5.6 42 78 1.9 35.5 -89.6 -3.528
05:28 1030 30.42 859 25.37 5.4 41.8 78 1.9 35.4 -89.6 -3.528
05:29 1030 30.42 859 25.37 5.4 41.7 78 1.9 35.4 -89.6 -3.528
05:30 1030 30.42 859 25.37 5.5 41.9 77 1.8 35.3 -89.6 -3.528
05:31 1030 30.42 859 25.37 5.6 42.1 77 1.9 35.3 -89.6 -3.528
05:32 1030 30.42 859 25.37 5.7 42.2 76 1.9 35.3 -89.6 -3.528
05:33 1030 30.42 859 25.37 5.7 42.2 76 1.8 35.3 -89.6 -3.528
05:34 1030 30.42 859 25.37 5.7 42.3 76 1.9 35.5 -89.6 -3.528
05:35 1030 30.42 859 25.37 5.6 42.1 77 1.9 35.4 -89.6 -3.528
05:36 1030 30.42 859 25.37 5.6 42.1 76 1.8 35.2 -89.6 -3.528
05:37 1030 30.42 859 25.37 5.8 42.4 75 1.7 35.1 -89.6 -3.528
05:38 1030 30.42 859 25.37 5.9 42.6 75 1.8 35.2 -89.6 -3.528
05:39 1030 30.42 860 25.4 6.1 42.9 74 1.9 35.4 -89.6 -3.528
05:40 1030 30.42 860 25.4 6.1 43.1 74 1.9 35.5 -89.6 -3.528
05:41 1030 30.42 860 25.4 6.1 43.1 74 1.9 35.4 -89.6 -3.528
05:42 1030 30.42 859 25.37 6.1 43 74 1.9 35.4 -89.6 -3.528
05:43 1030 30.42 859 25.37 6 42.9 75 1.9 35.4 -89.6 -3.528
05:44 1030 30.42 860 25.4 6 42.8 75 1.9 35.4 -89.6 -3.528
05:45 1030 30.42 859 25.37 6 42.8 74 1.8 35.3 -89.6 -3.528
05:46 1030 30.42 859 25.37 6.1 43 74 1.8 35.3 -89.7 -3.531
05:47 1030 30.42 859 25.37 6 42.9 74 1.7 35.1 -89.7 -3.531
05:48 1030 30.42 859 25.37 6.1 42.9 74 1.8 35.2 -89.7 -3.531
05:49 1030 30.42 859 25.37 6.1 43 74 1.9 35.4 -89.7 -3.531
05:50 1030 30.42 860 25.4 6 42.8 75 1.8 35.3 -89.7 -3.531
05:51 1030 30.42 859 25.37 5.9 42.6 75 1.7 35.1 -89.7 -3.531
05:52 1030 30.42 859 25.37 5.9 42.6 75 1.7 35.1 -89.7 -3.531
05:53 1030 30.42 859 25.37 5.9 42.6 74 1.7 35.1 -89.7 -3.531
05:54 1030 30.42 859 25.37 6 42.7 75 1.8 35.2 -89.7 -3.531
05:55 1030 30.42 859 25.37 5.9 42.6 75 1.8 35.3 -89.7 -3.531
05:56 1030 30.42 859 25.37 5.9 42.6 75 1.9 35.4 -89.7 -3.531
05:57 1030 30.42 859 25.37 5.7 42.3 76 1.8 35.3 -89.7 -3.531
05:58 1030 30.42 860 25.4 5.6 42.1 77 1.8 35.2 -89.7 -3.531
05:59 1030 30.42 860 25.4 5.5 41.9 77 1.8 35.3 -89.7 -3.531
06:00 1030 30.42 860 25.4 5.3 41.6 78 1.8 35.2 -89.7 -3.531
06:01 1030 30.42 860 25.4 5.3 41.5 78 1.8 35.3 -89.7 -3.531
06:02 1030 30.42 860 25.4 5.3 41.5 78 1.8 35.2 -89.8 -3.535
06:03 1030 30.42 860 25.4 5.3 41.5 78 1.7 35.1 -89.7 -3.531
06:04 1030 30.42 860 25.4 5.7 42.2 75 1.6 34.9 -89.8 -3.535
06:05 1030 30.42 860 25.4 6.1 42.9 74 1.7 35.1 -89.8 -3.535
06:06 1030 30.42 860 25.4 6.3 43.3 73 1.8 35.3 -89.8 -3.535
06:07 1030 30.42 860 25.4 6.3 43.3 73 1.9 35.4 -89.8 -3.535
06:08 1030 30.42 860 25.4 6.2 43.2 73 1.8 35.3 -89.8 -3.535
06:09 1030 30.42 860 25.4 6.3 43.4 72 1.7 35 -89.8 -3.535
06:10 1030 30.42 860 25.4 6.3 43.4 72 1.6 34.9 -89.8 -3.535
06:11 1030 30.42 860 25.4 6.5 43.6 71 1.7 35 -89.8 -3.535
06:12 1030 30.42 860 25.4 6.5 43.8 71 1.7 35 -89.8 -3.535
06:13 1030 30.42 860 25.4 6.7 44.1 70 1.7 35.1 -89.8 -3.535
06:14 1030 30.42 860 25.4 6.9 44.3 70 1.7 35.1 -89.8 -3.535
06:15 1030 30.42 860 25.4 7 44.6 69 1.7 35.1 -89.8 -3.535
06:16 1030 30.42 860 25.4 7.2 44.9 68 1.6 34.9 -89.8 -3.535
06:17 1030 30.42 860 25.4 7.4 45.3 67 1.8 35.3 -89.8 -3.535
06:18 1030 30.42 860 25.4 7.5 45.4 67 1.8 35.3 -89.8 -3.535
06:19 1030 30.42 860 25.4 7.4 45.3 68 1.9 35.4 -89.8 -3.535
06:20 1030 30.42 860 25.4 7.3 45.2 69 2 35.5 -89.8 -3.535
06:21 1030 30.42 860 25.4 7.4 45.3 68 1.9 35.4 -89.8 -3.535
06:22 1030 30.42 860 25.4 7.5 45.4 68 1.9 35.5 -89.8 -3.535
06:23 1030 30.42 860 25.4 7.4 45.3 68 1.9 35.4 -89.8 -3.535
06:24 1030 30.42 860 25.4 7.3 45.1 69 1.9 35.5 -89.8 -3.535
06:25 1030 30.42 860 25.4 7.1 44.9 69 1.9 35.5 -89.8 -3.535
06:26 1030 30.42 860 25.4 7.1 44.7 69 1.8 35.2 -89.8 -3.535
06:27 1030 30.42 860 25.4 7.1 44.8 69 1.8 35.2 -89.8 -3.535
06:28 1030 30.42 860 25.4 7.1 44.7 69 1.8 35.2 -89.8 -3.535
06:29 1030 30.42 860 25.4 7 44.7 69 1.8 35.2 -89.8 -3.535
06:30 1030 30.42 860 25.4 7.1 44.7 69 1.8 35.2 -89.8 -3.535
06:31 1030 30.42 860 25.4 7.2 44.9 68 1.7 35 -89.8 -3.535
06:32 1030 30.42 860 25.4 7.5 45.5 66 1.6 34.9 -89.8 -3.535
06:33 1030 30.42 860 25.4 7.8 46 65 1.6 35 -89.9 -3.539
06:34 1030 30.42 860 25.4 7.9 46.2 65 1.7 35.1 -89.9 -3.539
06:35 1030 30.42 860 25.4 8 46.3 64 1.6 34.9 -89.9 -3.539
06:36 1030 30.42 860 25.4 8.2 46.8 63 1.7 35.1 -89.9 -3.539
06:37 1030 30.42 860 25.4 8.4 47.2 63 1.7 35.1 -89.9 -3.539
06:38 1030 30.42 860 25.4 8.6 47.4 62 1.7 35.1 -89.9 -3.539
06:39 1030 30.42 860 25.4 8.8 47.8 61 1.6 34.9 -89.9 -3.539
06:40 1030 30.42 860 25.4 9 48.1 60 1.7 35.1 -89.9 -3.539
06:41 1030 30.42 860 25.4 9 48.3 60 1.8 35.2 -89.9 -3.539
06:42 1030 30.42 860 25.4 9.2 48.5 59 1.7 35 -89.9 -3.539
06:43 1030 30.42 860 25.4 9.3 48.7 59 1.7 35.1 -89.9 -3.539
06:44 1030 30.42 860 25.4 9.3 48.7 59 1.6 34.9 -89.9 -3.539
06:45 1030 30.42 860 25.4 9.4 48.8 59 1.7 35.1 -89.9 -3.539
06:46 1030 30.42 860 25.4 9.3 48.7 60 2 35.6 -89.9 -3.539
06:47 1030 30.42 860 25.4 9 48.2 62 2.1 35.8 -89.9 -3.539
06:48 1030 30.42 860 25.4 8.7 47.7 62 1.9 35.4 -89.9 -3.539
06:49 1030 30.42 860 25.4 8.6 47.5 62 1.8 35.2 -89.9 -3.539
06:50 1030 30.42 860 25.4 8.6 47.5 61 1.6 34.9 -89.9 -3.539
06:51 1030 30.42 860 25.4 8.7 47.6 61 1.6 34.9 -89.9 -3.539
06:52 1030 30.42 860 25.4 8.8 47.8 60 1.6 34.8 -89.9 -3.539
06:53 1030 30.42 860 25.4 8.7 47.7 62 1.9 35.4 -89.9 -3.539
06:54 1030 30.42 860 25.4 8.2 46.8 64 1.9 35.5 -89.9 -3.539
06:55 1030 30.42 860 25.4 7.8 46.1 66 1.9 35.4 -89.9 -3.539
06:56 1030 30.42 860 25.4 7.7 45.8 66 1.8 35.2 -89.9 -3.539
06:57 1030 30.42 860 25.4 7.6 45.7 66 1.7 35 -89.9 -3.539
06:58 1030 30.42 860 25.4 7.7 45.8 65 1.5 34.8 -89.9 -3.539
06:59 1030 30.42 860 25.4 7.8 46.1 64 1.5 34.7 -89.9 -3.539
07:00 1030 30.42 860 25.4 8 46.4 64 1.5 34.7 -89.9 -3.539
07:01 1030 30.42 860 25.4 8.2 46.7 63 1.5 34.7 -89.9 -3.539
07:02 1030 30.42 860 25.4 8.3 46.9 63 1.6 34.8 -89.9 -3.539
07:03 1030 30.42 860 25.4 8.3 46.9 62 1.5 34.6 -89.9 -3.539
07:04 1030 30.42 860 25.4 8.5 47.4 61 1.5 34.7 -89.9 -3.539
07:05 1030 30.42 860 25.4 8.8 47.8 60 1.6 34.8 -89.9 -3.539
07:06 1030 30.42 860 25.4 8.9 48 60 1.6 34.8 -89.9 -3.539
07:07 1030 30.42 860 25.4 9 48.1 60 1.6 34.9 -89.9 -3.539
07:08 1030 30.42 860 25.4 9 48.3 60 1.6 34.9 -89.9 -3.539
07:09 1030 30.42 860 25.4 9.1 48.4 60 1.7 35.1 -89.9 -3.539
07:10 1030 30.42 860 25.4 9.2 48.6 59 1.7 35 -89.9 -3.539
07:11 1030 30.42 860 25.4 9.3 48.7 60 1.9 35.3 -89.9 -3.539
07:12 1030 30.42 860 25.4 9.2 48.6 60 1.8 35.2 -89.9 -3.539
07:13 1030 30.42 860 25.4 9.2 48.5 60 1.8 35.2 -89.9 -3.539
07:14 1030 30.42 860 25.4 9.3 48.7 60 1.9 35.4 -89.9 -3.539
07:15 1030 30.42 860 25.4 9.2 48.6 59 1.8 35.2 -89.8 -3.535
07:16 1030 30.42 860 25.4 9.4 48.8 59 1.8 35.3 -89.9 -3.539
07:17 1030 30.42 860 25.4 9.3 48.7 60 2 35.5 -89.8 -3.535
07:18 1031 30.45 860 25.4 9.1 48.5 60 1.9 35.4 -89.8 -3.535
07:19 1030 30.42 860 25.4 9.1 48.3 60 1.8 35.3 -89.8 -3.535
07:20 1030 30.42 860 25.4 9 48.3 61 1.9 35.4 -89.8 -3.535
07:21 1030 30.42 860 25.4 9.1 48.4 60 1.9 35.4 -89.8 -3.535
07:22 1030 30.42 860 25.4 9.2 48.5 60 1.9 35.5 -89.8 -3.535
07:23 1031 30.45 860 25.4 9.2 48.5 60 1.8 35.3 -89.8 -3.535
07:24 1031 30.45 860 25.4 9.3 48.7 59 1.8 35.2 -89.8 -3.535
07:25 1031 30.45 860 25.4 9.4 48.9 60 2 35.6 -89.8 -3.535
07:26 1031 30.45 860 25.4 9.4 49 60 2 35.7 -89.8 -3.535
07:27 1030 30.42 860 25.4 9.4 49 60 2.1 35.8 -89.8 -3.535
07:28 1030 30.42 860 25.4 9.4 48.9 60 2.1 35.8 -89.8 -3.535
07:29 1030 30.42 860 25.4 9.4 48.9 60 2.1 35.8 -89.8 -3.535
07:30 1031 30.45 860 25.4 9.4 48.9 60 2 35.7 -89.8 -3.535
07:31 1031 30.45 860 25.4 9.3 48.7 60 2.1 35.7 -89.8 -3.535
07:32 1031 30.45 860 25.4 9.2 48.6 61 2.1 35.8 -89.8 -3.535
07:33 1031 30.45 860 25.4 9.2 48.5 61 2.2 35.9 -89.8 -3.535
07:34 1031 30.45 860 25.4 9.1 48.4 61 2.1 35.8 -89.8 -3.535
07:35 1031 30.45 860 25.4 9.1 48.4 62 2.1 35.9 -89.8 -3.535
07:36 1031 30.45 860 25.4 9 48.2 62 2.2 35.9 -89.8 -3.535
07:37 1031 30.45 860 25.4 8.9 48.1 62 2.1 35.8 -89.8 -3.535
07:38 1031 30.45 860 25.4 8.9 48 62 2 35.7 -89.8 -3.535
07:39 1031 30.45 860 25.4 8.9 48.1 61 1.9 35.5 -89.8 -3.535
07:40 1031 30.45 860 25.4 8.9 48 65 2.6 36.7 -89.8 -3.535
07:41 1031 30.45 860 25.4 8.6 47.4 64 2.2 36 -89.8 -3.535
07:42 1031 30.45 860 25.4 8.3 46.9 65 2.2 35.9 -89.8 -3.535
07:43 1031 30.45 860 25.4 8.2 46.7 66 2.2 35.9 -89.8 -3.535
07:44 1031 30.45 860 25.4 8.2 46.8 66 2.2 36 -89.8 -3.535
07:45 1031 30.45 860 25.4 8.2 46.8 66 2.3 36.1 -89.8 -3.535
07:46 1031 30.45 860 25.4 8.4 47.2 65 2.2 35.9 -89.8 -3.535
07:47 1031 30.45 860 25.4 8.7 47.7 63 2.1 35.7 -89.8 -3.535
07:48 1031 30.45 860 25.4 9 48.2 63 2.3 36.2 -89.8 -3.535
07:49 1031 30.45 860 25.4 9.1 48.4 62 2.3 36.2 -89.8 -3.535
07:50 1031 30.45 860 25.4 9.2 48.6 63 2.5 36.5 -89.8 -3.535
07:51 1031 30.45 860 25.4 9.3 48.7 63 2.6 36.7 -89.8 -3.535
07:52 1031 30.45 860 25.4 9.3 48.7 63 2.7 36.9 -89.8 -3.535
07:53 1031 30.45 860 25.4 9.4 48.8 64 2.9 37.2 -89.8 -3.535
07:54 1031 30.45 860 25.4 9.4 49 63 2.7 36.9 -89.8 -3.535
07:55 1031 30.45 860 25.4 9.5 49.1 63 2.9 37.2 -89.8 -3.535
07:56 1031 30.45 860 25.4 9.6 49.4 63 3.1 37.5 -89.8 -3.535
07:57 1031 30.45 860 25.4 9.7 49.5 63 3.1 37.6 -89.8 -3.535
07:58 1031 30.45 860 25.4 9.9 49.8 61 2.8 37 -89.8 -3.535
07:59 1031 30.45 860 25.4 10.3 50.5 62 3.4 38.1 -89.8 -3.535
08:00 1031 30.45 860 25.4 10.5 50.9 61 3.3 38 -89.8 -3.535
08:01 1031 30.45 860 25.4 10.7 51.2 60 3.4 38.1 -89.8 -3.535
08:02 1031 30.45 860 25.4 11 51.7 58 3.1 37.6 -89.8 -3.535
08:03 1031 30.45 860 25.4 11.3 52.4 57 3.2 37.8 -89.8 -3.535
08:04 1031 30.45 860 25.4 11.7 53 54 2.8 37 -89.8 -3.535
08:05 1031 30.45 860 25.4 12 53.6 54 3.1 37.6 -89.8 -3.535
08:06 1031 30.45 860 25.4 12.3 54.1 52 2.7 36.9 -89.8 -3.535
08:07 1031 30.45 860 25.4 12.5 54.6 53 3.3 38 -89.8 -3.535
08:08 1031 30.45 860 25.4 12.7 54.8 51 3 37.3 -89.7 -3.531
08:09 1031 30.45 860 25.4 12.7 54.9 52 3.2 37.7 -89.7 -3.531
08:10 1031 30.45 860 25.4 12.8 55 53 3.5 38.2 -89.7 -3.531
08:11 1031 30.45 860 25.4 12.8 55.1 54 3.7 38.7 -89.7 -3.531
08:12 1031 30.45 860 25.4 12.9 55.3 52 3.3 37.9 -89.7 -3.531
08:13 1031 30.45 860 25.4 13.1 55.5 52 3.5 38.3 -89.7 -3.531
08:14 1031 30.45 860 25.4 13.1 55.6 53 3.8 38.8 -89.7 -3.531
08:15 1031 30.45 860 25.4 13.2 55.8 52 3.6 38.6 -89.7 -3.531
08:16 1031 30.45 860 25.4 13.3 55.9 51 3.5 38.3 -89.7 -3.531
08:17 1031 30.45 860 25.4 13.4 56.2 50 3.2 37.8 -89.7 -3.531
08:18 1031 30.45 860 25.4 13.6 56.4 51 3.8 38.8 -89.6 -3.528
08:19 1031 30.45 860 25.4 13.7 56.6 50 3.4 38.1 -89.6 -3.528
08:20 1031 30.45 860 25.4 13.8 56.8 50 3.7 38.7 -89.6 -3.528
08:21 1031 30.45 860 25.4 13.9 56.9 50 3.6 38.4 -89.6 -3.528
08:22 1031 30.45 860 25.4 13.9 57.1 50 3.7 38.6 -89.6 -3.528
08:23 1031 30.45 860 25.4 14 57.2 49 3.5 38.3 -89.6 -3.528
08:24 1031 30.45 860 25.4 14.1 57.3 49 3.7 38.7 -89.6 -3.528
08:25 1031 30.45 860 25.4 14.1 57.4 49 3.6 38.5 -89.6 -3.528
08:26 1031 30.45 860 25.4 14.2 57.6 50 4 39.1 -89.5 -3.524
08:27 1031 30.45 860 25.4 14.3 57.7 51 4.2 39.6 -89.5 -3.524
08:28 1031 30.45 860 25.4 14.3 57.8 51 4.5 40 -89.5 -3.524
08:29 1031 30.45 860 25.4 14.4 57.8 49 4 39.1 -89.5 -3.524
08:30 1031 30.45 860 25.4 14.4 57.9 50 4.1 39.4 -89.5 -3.524
08:31 1031 30.45 860 25.4 14.5 58 49 3.8 38.9 -89.4 -3.52
08:32 1031 30.45 860 25.4 14.5 58.1 49 4.1 39.3 -89.4 -3.52
08:33 1031 30.45 860 25.4 14.6 58.2 47 3.5 38.4 -89.4 -3.52
08:34 1031 30.45 860 25.4 14.6 58.3 46 3.2 37.8 -89.4 -3.52
08:35 1031 30.45 860 25.4 14.7 58.4 48 3.8 38.8 -89.4 -3.52
08:36 1031 30.45 860 25.4 14.8 58.6 47 3.7 38.6 -89.3 -3.516
08:37 1031 30.45 860 25.4 14.9 58.8 47 3.7 38.7 -89.3 -3.516
08:38 1031 30.45 860 25.4 14.9 58.9 50 4.7 40.5 -89.3 -3.516
08:39 1031 30.45 860 25.4 15 59 48 4.3 39.8 -89.3 -3.516
08:40 1031 30.45 860 25.4 15.1 59.2 45 3.3 38 -89.3 -3.516
08:41 1031 30.45 860 25.4 15.1 59.2 49 4.5 40 -89.3 -3.516
08:42 1031 30.45 860 25.4 15.1 59.2 49 4.5 40 -89.2 -3.512
08:43 1031 30.45 860 25.4 15.2 59.3 47 4 39.2 -89.2 -3.512
08:44 1031 30.45 860 25.4 15.2 59.3 48 4.3 39.7 -89.2 -3.512
08:45 1031 30.45 860 25.4 15.2 59.3 46 3.6 38.5 -89.2 -3.512
08:46 1031 30.45 860 25.4 15.2 59.3 45 3.5 38.4 -89.1 -3.508
08:47 1031 30.45 860 25.4 15.2 59.4 48 4.4 39.9 -89.1 -3.508
08:48 1031 30.45 860 25.4 15.2 59.3 51 5.3 41.6 -89.1 -3.508
08:49 1031 30.45 860 25.4 15.2 59.4 50 5 41 -89.1 -3.508
08:50 1031 30.45 860 25.4 15.3 59.5 49 4.6 40.3 -89.1 -3.508
08:51 1031 30.45 860 25.4 15.3 59.5 49 4.6 40.3 -89.1 -3.508
08:52 1031 30.45 860 25.4 15.2 59.4 47 4.2 39.6 -89.1 -3.508
08:53 1031 30.45 860 25.4 15.3 59.5 48 4.4 39.9 -89 -3.504
08:54 1031 30.45 860 25.4 15.3 59.6 48 4.6 40.2 -89 -3.504
08:55 1031 30.45 860 25.4 15.4 59.8 46 3.9 39 -89 -3.504
08:56 1031 30.45 860 25.4 15.5 60 49 4.9 40.9 -89 -3.504
08:57 1031 30.45 860 25.4 15.6 60.1 46 4.1 39.4 -88.9 -3.5
08:58 1031 30.45 860 25.4 15.7 60.3 45 3.8 38.8 -88.9 -3.5
08:59 1031 30.45 860 25.4 15.8 60.4 47 4.5 40.1 -88.9 -3.5
09:00 1031 30.45 860 25.4 15.9 60.6 45 4.2 39.6 -88.9 -3.5
09:01 1031 30.45 860 25.4 16 60.7 42 3.3 37.9 -88.9 -3.5
09:02 1031 30.45 860 25.4 16 60.8 45 4.3 39.7 -88.9 -3.5
09:03 1031 30.45 860 25.4 16.1 60.9 42 3.1 37.6 -88.9 -3.5
09:04 1031 30.45 860 25.4 16.1 61.1 43 3.6 38.5 -88.8 -3.496
09:05 1031 30.45 860 25.4 16.2 61.1 42 3.4 38.1 -88.8 -3.496
09:06 1031 30.45 860 25.4 16.3 61.3 41 3 37.3 -88.8 -3.496
09:07 1031 30.45 860 25.4 16.3 61.4 41 3.1 37.6 -88.8 -3.496
09:08 1031 30.45 860 25.4 16.4 61.6 41 3.3 37.9 -88.8 -3.496
09:09 1031 30.45 860 25.4 16.5 61.7 42 3.7 38.7 -88.7 -3.492
09:10 1031 30.45 860 25.4 16.6 61.8 41 3.5 38.4 -88.7 -3.492
09:11 1031 30.45 860 25.4 16.7 62.1 44 4.4 39.9 -88.7 -3.492
09:12 1031 30.45 860 25.4 16.8 62.3 44 4.6 40.2 -88.7 -3.492
09:13 1031 30.45 860 25.4 16.9 62.5 39 3.2 37.7 -88.7 -3.492
09:14 1031 30.45 860 25.4 17 62.6 41 3.8 38.8 -88.6 -3.488
09:15 1031 30.45 860 25.4 17 62.7 43 4.4 39.8 -88.6 -3.488
09:16 1031 30.45 860 25.4 17.1 62.8 39 3.2 37.8 -88.6 -3.488
09:17 1031 30.45 860 25.4 17.2 63 41 3.9 39 -88.6 -3.488
09:18 1031 30.45 860 25.4 17.2 63 41 4 39.2 -88.6 -3.488
09:19 1031 30.45 860 25.4 17.2 63 40 3.8 38.8 -88.6 -3.488
09:20 1031 30.45 860 25.4 17.3 63.2 38 3.1 37.6 -88.6 -3.488
09:21 1031 30.45 860 25.4 17.4 63.4 42 4.6 40.2 -88.5 -3.484
09:22 1031 30.45 860 25.4 17.6 63.6 38 3.3 38 -88.5 -3.484
09:23 1031 30.45 860 25.4 17.6 63.7 38 3.1 37.5 -88.5 -3.484
09:24 1031 30.45 860 25.4 17.8 64 38 3.3 38 -88.5 -3.484
09:25 1031 30.45 860 25.4 17.9 64.2 42 4.8 40.6 -88.4 -3.48
09:26 1031 30.45 860 25.4 18 64.4 37 3.2 37.8 -88.4 -3.48
09:27 1031 30.45 860 25.4 18.1 64.5 40 4.4 39.9 -88.4 -3.48
09:28 1031 30.45 860 25.4 18.1 64.6 37 3.3 37.9 -88.4 -3.48
09:29 1031 30.45 860 25.4 18.1 64.7 39 4 39.2 -88.4 -3.48
09:30 1031 30.45 860 25.4 18.2 64.8 37 3.4 38.1 -88.3 -3.476
09:31 1031 30.45 860 25.4 18.2 64.7 39 4.3 39.8 -88.3 -3.476
09:32 1031 30.45 860 25.4 18.2 64.7 35 2.7 36.9 -88.3 -3.476
09:33 1031 30.45 860 25.4 18.3 64.9 39 4.3 39.7 -88.3 -3.476
09:34 1031 30.45 860 25.4 18.3 64.9 35 2.7 36.9 -88.3 -3.476
09:35 1031 30.45 860 25.4 18.2 64.7 37 3.4 38 -88.3 -3.476
09:36 1031 30.45 860 25.4 18.3 65 41 4.9 40.8 -88.2 -3.472
09:37 1031 30.45 860 25.4 18.5 65.2 37 3.7 38.7 -88.2 -3.472
09:38 1031 30.45 860 25.4 18.6 65.5 37 3.8 38.9 -88.2 -3.472
09:39 1031 30.45 860 25.4 18.6 65.4 36 3.3 37.9 -88.2 -3.472
09:40 1031 30.45 860 25.4 18.5 65.4 37 3.8 38.9 -88.2 -3.472
09:41 1031 30.45 860 25.4 18.5 65.3 35 3.1 37.5 -88.1 -3.469
09:42 1031 30.45 860 25.4 18.5 65.4 35 3.1 37.6 -88.1 -3.469
09:43 1031 30.45 860 25.4 18.6 65.5 36 3.5 38.3 -88.1 -3.469
09:44 1031 30.45 860 25.4 18.7 65.6 35 3 37.4 -88.1 -3.469
09:45 1031 30.45 860 25.4 18.8 65.8 35 3.1 37.6 -88.1 -3.469
09:46 1031 30.45 860 25.4 19.1 66.3 34 3.2 37.7 -88 -3.465
09:47 1031 30.45 860 25.4 19.2 66.6 36 3.9 39 -88 -3.465
09:48 1030 30.42 860 25.4 19.3 66.7 37 4.3 39.8 -88 -3.465
09:49 1031 30.45 860 25.4 19.1 66.4 34 3 37.4 -88 -3.465
09:50 1031 30.45 860 25.4 19.1 66.3 35 3.4 38.2 -87.9 -3.461
09:51 1031 30.45 860 25.4 19.2 66.6 34 3.1 37.6 -87.9 -3.461
09:52 1031 30.45 860 25.4 19.3 66.8 37 4.6 40.3 -87.9 -3.461
09:53 1031 30.45 860 25.4 19.4 66.8 40 5.4 41.7 -87.8 -3.457
09:54 1031 30.45 860 25.4 19.3 66.7 33 3 37.3 -87.8 -3.457
09:55 1031 30.45 860 25.4 19.3 66.7 33 2.9 37.2 -87.8 -3.457
09:56 1031 30.45 860 25.4 19.6 67.2 35 4 39.2 -87.8 -3.457
09:57 1031 30.45 860 25.4 19.7 67.4 35 4 39.2 -87.7 -3.453
09:58 1030 30.42 860 25.4 19.8 67.6 33 3.1 37.6 -87.7 -3.453
09:59 1030 30.42 860 25.4 19.9 67.8 33 3.5 38.3 -87.7 -3.453
10:00 1030 30.42 860 25.4 19.9 67.8 33 3.4 38.2 -87.7 -3.453
10:01 1030 30.42 860 25.4 19.7 67.5 34 3.6 38.5 -87.7 -3.453
10:02 1030 30.42 860 25.4 19.6 67.3 34 3.5 38.3 -87.6 -3.449
10:03 1030 30.42 860 25.4 19.6 67.4 34 3.6 38.5 -87.6 -3.449
10:04 1030 30.42 860 25.4 19.8 67.7 34 3.8 38.9 -87.5 -3.445
10:05 1030 30.42 860 25.4 19.8 67.6 33 3.4 38.1 -87.5 -3.445
10:06 1030 30.42 860 25.4 19.6 67.2 40 5.7 42.2 -87.5 -3.445
10:07 1030 30.42 860 25.4 19.5 67 38 5.1 41.1 -87.5 -3.445
10:08 1030 30.42 860 25.4 19.3 66.7 37 4.3 39.7 -87.5 -3.445
10:09 1030 30.42 860 25.4 19.2 66.5 37 4.1 39.4 -87.4 -3.441
10:10 1030 30.42 860 25.4 19.1 66.4 36 4 39.2 -87.4 -3.441
10:11 1030 30.42 860 25.4 19.1 66.3 37 4.2 39.6 -87.4 -3.441
10:12 1030 30.42 860 25.4 19.1 66.3 38 4.6 40.2 -87.4 -3.441
10:13 1030 30.42 860 25.4 19 66.3 38 4.6 40.2 -87.3 -3.437
10:14 1030 30.42 860 25.4 19 66.3 38 4.6 40.3 -87.3 -3.437
10:15 1030 30.42 860 25.4 19 66.1 37 4.3 39.7 -87.3 -3.437
10:16 1030 30.42 860 25.4 18.8 65.8 37 3.8 38.9 -87.3 -3.437
10:17 1030 30.42 860 25.4 18.7 65.6 43 5.9 42.6 -87.2 -3.433
10:18 1030 30.42 860 25.4 18.7 65.7 39 4.5 40.2 -87.2 -3.433
10:19 1030 30.42 860 25.4 18.8 65.8 37 3.7 38.7 -87.2 -3.433
10:20 1030 30.42 860 25.4 18.7 65.7 38 4.1 39.3 -87.2 -3.433
10:21 1030 30.42 860 25.4 18.7 65.7 37 3.8 38.9 -87.1 -3.429
10:22 1030 30.42 860 25.4 18.8 65.8 36 3.7 38.6 -87.1 -3.429
10:23 1030 30.42 860 25.4 18.9 66.1 39 4.9 40.8 -87.1 -3.429
10:24 1030 30.42 860 25.4 19.1 66.5 41 5.6 42 -87 -3.425
10:25 1030 30.42 860 25.4 19.3 66.8 39 5.1 41.1 -86.9 -3.421
10:26 1030 30.42 860 25.4 19.4 67 36 4.1 39.4 -86.9 -3.421
10:27 1030 30.42 860 25.4 19.4 66.9 39 5.2 41.4 -86.9 -3.421
10:28 1030 30.42 860 25.4 19.4 66.9 39 5.3 41.5 -86.9 -3.421
10:29 1030 30.42 860 25.4 19.4 66.8 38 4.9 40.8 -86.9 -3.421
10:30 1030 30.42 860 25.4 19.5 67.2 35 3.7 38.7 -86.9 -3.421
10:31 1030 30.42 860 25.4 19.4 66.9 40 5.7 42.2 -86.9 -3.421
10:32 1030 30.42 860 25.4 19.3 66.8 38 4.7 40.4 -86.8 -3.417
10:33 1030 30.42 860 25.4 19.2 66.6 35 3.5 38.4 -86.8 -3.417
10:34 1030 30.42 860 25.4 19.1 66.4 35 3.6 38.6 -86.8 -3.417
10:35 1030 30.42 860 25.4 19 66.2 40 5.3 41.6 -86.7 -3.413
10:36 1030 30.42 860 25.4 19.2 66.5 36 3.9 38.9 -86.7 -3.413
10:37 1030 30.42 860 25.4 19.2 66.6 36 3.9 39 -86.7 -3.413
10:38 1030 30.42 860 25.4 19.2 66.6 35 3.7 38.6 -86.6 -3.409
10:39 1030 30.42 860 25.4 19.2 66.6 38 4.6 40.3 -86.6 -3.409
10:40 1030 30.42 859 25.37 19.2 66.6 37 4.3 39.7 -86.6 -3.409
10:41 1030 30.42 860 25.4 19.3 66.7 38 4.9 40.8 -86.5 -3.406
10:42 1030 30.42 859 25.37 19.4 66.9 40 5.6 42.1 -86.5 -3.406
10:43 1030 30.42 859 25.37 19.4 66.9 35 3.7 38.6 -86.5 -3.406
10:44 1030 30.42 860 25.4 19.5 67.1 38 4.8 40.6 -86.5 -3.406
10:45 1030 30.42 859 25.37 19.6 67.2 40 5.7 42.3 -86.4 -3.402
10:46 1030 30.42 859 25.37 19.6 67.3 35 3.9 38.9 -86.4 -3.402
10:47 1030 30.42 860 25.4 19.4 67 37 4.3 39.8 -86.4 -3.402
10:48 1030 30.42 859 25.37 19.3 66.8 35 3.5 38.3 -86.4 -3.402
10:49 1030 30.42 860 25.4 19.2 66.6 35 3.4 38.1 -86.3 -3.398
10:50 1030 30.42 859 25.37 19.2 66.6 35 3.5 38.3 -86.3 -3.398
10:51 1030 30.42 859 25.37 19.3 66.8 34 3.4 38.1 -86.3 -3.398
10:52 1030 30.42 859 25.37 19.5 67 35 3.6 38.5 -86.3 -3.398
10:53 1030 30.42 859 25.37 19.6 67.3 39 5.5 41.9 -86.2 -3.394
10:54 1030 30.42 859 25.37 19.8 67.6 37 5 41 -86.2 -3.394
10:55 1030 30.42 859 25.37 20 68 38 5.4 41.8 -86.2 -3.394
10:56 1030 30.42 859 25.37 20.2 68.4 34 3.9 39 -86.1 -3.39
10:57 1030 30.42 859 25.37 20.2 68.3 33 3.4 38.1 -86.1 -3.39
10:58 1030 30.42 859 25.37 20.1 68.2 35 4.2 39.6 -86.1 -3.39
10:59 1030 30.42 859 25.37 20.2 68.3 35 4.3 39.7 -86 -3.386
11:00 1030 30.42 859 25.37 20.2 68.3 38 5.6 42.1 -86 -3.386
11:01 1030 30.42 859 25.37 20.2 68.4 36 4.9 40.7 -86 -3.386
11:02 1030 30.42 859 25.37 20.2 68.4 38 5.5 41.9 -85.9 -3.382
11:03 1030 30.42 859 25.37 20.2 68.4 34 3.9 39 -85.9 -3.382
11:04 1030 30.42 859 25.37 20.1 68.1 33 3.6 38.4 -85.9 -3.382
11:05 1030 30.42 859 25.37 20.1 68.1 32 3 37.4 -85.9 -3.382
11:06 1030 30.42 859 25.37 19.9 67.9 33 3.5 38.3 -85.8 -3.378
11:07 1030 30.42 859 25.37 19.9 67.9 37 5.1 41.2 -85.8 -3.378
11:08 1030 30.42 859 25.37 20.1 68.1 32 3.2 37.7 -85.8 -3.378
11:09 1030 30.42 859 25.37 20.2 68.3 35 4.6 40.3 -85.8 -3.378
11:10 1030 30.42 859 25.37 20.2 68.4 31 2.9 37.2 -85.7 -3.374
11:11 1030 30.42 859 25.37 20.3 68.5 32 3.3 38 -85.7 -3.374
11:12 1030 30.42 859 25.37 20.4 68.7 32 3.4 38.1 -85.6 -3.37
11:13 1030 30.42 859 25.37 20.4 68.7 32 3.2 37.7 -85.6 -3.37
11:14 1030 30.42 859 25.37 20.4 68.6 33 3.8 38.8 -85.6 -3.37
11:15 1030 30.42 859 25.37 20.5 68.8 32 3.4 38.1 -85.5 -3.366
11:16 1030 30.42 859 25.37 20.6 69.1 35 4.9 40.9 -85.5 -3.366
11:17 1030 30.42 859 25.37 20.7 69.2 33 4 39.2 -85.5 -3.366
11:18 1030 30.42 859 25.37 20.7 69.2 32 3.5 38.4 -85.5 -3.366
11:19 1030 30.42 859 25.37 20.8 69.4 33 3.9 39.1 -85.4 -3.362
11:20 1030 30.42 859 25.37 20.9 69.6 31 3.4 38.2 -85.4 -3.362
11:21 1030 30.42 859 25.37 21 69.9 33 4.4 40 -85.3 -3.358
11:22 1030 30.42 859 25.37 21 69.9 31 3.4 38.2 -85.3 -3.358
11:23 1030 30.42 859 25.37 21 69.8 34 4.5 40.2 -85.2 -3.354
11:24 1030 30.42 859 25.37 20.9 69.6 31 3.4 38.1 -85.2 -3.354
11:25 1030 30.42 859 25.37 20.8 69.4 33 4.1 39.3 -85.2 -3.354
11:26 1030 30.42 859 25.37 20.9 69.6 35 4.9 40.9 -85.1 -3.35
11:27 1030 30.42 859 25.37 21 69.7 35 5 41 -85.1 -3.35
11:28 1030 30.42 859 25.37 21 69.8 33 4.4 40 -85.1 -3.35
11:29 1030 30.42 859 25.37 21 69.9 32 3.9 39.1 -85 -3.346
11:30 1030 30.42 859 25.37 21.1 69.9 34 4.8 40.7 -85 -3.346
11:31 1030 30.42 859 25.37 21 69.8 32 3.8 38.8 -85 -3.346
11:32 1030 30.42 859 25.37 21 69.8 31 3.6 38.5 -84.9 -3.343
11:33 1030 30.42 859 25.37 21 69.9 30 3 37.5 -84.9 -3.343
11:34 1030 30.42 859 25.37 21.1 69.9 33 4.4 40 -84.8 -3.339
11:35 1030 30.42 859 25.37 21.1 69.9 33 4.4 39.9 -84.8 -3.339
11:36 1030 30.42 859 25.37 21 69.9 31 3.4 38.1 -84.8 -3.339
11:37 1030 30.42 859 25.37 21 69.7 32 3.8 38.9 -84.8 -3.339
11:38 1030 30.42 859 25.37 20.9 69.7 32 4 39.1 -84.7 -3.335
11:39 1030 30.42 859 25.37 21 69.7 31 3.6 38.4 -84.7 -3.335
11:40 1030 30.42 859 25.37 21 69.8 34 4.8 40.6 -84.6 -3.331
11:41 1030 30.42 859 25.37 21 69.8 32 3.9 39.1 -84.6 -3.331
11:42 1030 30.42 859 25.37 21.1 70 30 2.9 37.3 -84.6 -3.331
11:43 1030 30.42 859 25.37 21.1 70 30 2.9 37.2 -84.5 -3.327
11:44 1030 30.42 859 25.37 21.1 69.9 30 3.1 37.6 -84.5 -3.327
11:45 1030 30.42 859 25.37 21.2 70.2 31 3.6 38.5 -84.4 -3.323
11:46 1030 30.42 859 25.37 21.5 70.7 30 3.4 38.2 -84.4 -3.323
11:47 1030 30.42 859 25.37 21.5 70.8 32 4.4 39.9 -84.3 -3.319
11:48 1030 30.42 859 25.37 21.7 71 32 4.3 39.8 -84.3 -3.319
11:49 1030 30.42 859 25.37 21.6 71 31 4 39.2 -84.3 -3.319
11:50 1030 30.42 859 25.37 21.7 71 33 4.9 40.9 -84.3 -3.319
11:51 1030 30.42 859 25.37 21.7 71.1 30 3.6 38.5 -84.2 -3.315
11:52 1030 30.42 859 25.37 21.6 70.9 34 5.3 41.6 -84.2 -3.315
11:53 1030 30.42 859 25.37 21.7 71.1 30 3.5 38.3 -84.2 -3.315
11:54 1030 30.42 859 25.37 21.7 71 29 3.2 37.8 -84.2 -3.315
11:55 1030 30.42 859 25.37 21.7 71 30 3.4 38.1 -84.1 -3.311
11:56 1030 30.42 859 25.37 21.9 71.3 32 4.5 40.1 -84.1 -3.311
11:57 1030 30.42 859 25.37 22 71.7 30 3.8 38.8 -84 -3.307
11:58 1030 30.42 859 25.37 22.1 71.8 29 3.4 38.1 -84 -3.307
11:59 1030 30.42 859 25.37 22.1 71.8 31 4.6 40.3 -83.9 -3.303
12:00 1030 30.42 859 25.37 22.1 71.9 31 4.4 39.8 -83.9 -3.303
12:01 1030 30.42 859 25.37 22.1 71.8 29 3.5 38.3 -83.8 -3.299
12:02 1030 30.42 859 25.37 22 71.6 32 4.9 40.8 -83.8 -3.299
12:03 1030 30.42 859 25.37 21.9 71.4 29 3.4 38 -83.8 -3.299
12:04 1030 30.42 859 25.37 22 71.5 33 4.9 40.9 -83.8 -3.299
12:05 1030 30.42 859 25.37 22.1 71.8 29 3.7 38.6 -83.7 -3.295
12:06 1030 30.42 859 25.37 22.2 71.9 30 4.1 39.4 -83.7 -3.295
12:07 1030 30.42 859 25.37 22.1 71.7 31 4.2 39.6 -83.6 -3.291
12:08 1030 30.42 859 25.37 22.1 71.9 31 4.6 40.3 -83.6 -3.291
12:09 1030 30.42 859 25.37 22.3 72.1 31 4.6 40.3 -83.6 -3.291
12:10 1030 30.42 859 25.37 22.3 72.2 31 4.5 40 -83.5 -3.287
12:11 1030 30.42 859 25.37 22.3 72.2 30 4 39.3 -83.5 -3.287
12:12 1030 30.42 859 25.37 22.2 72 29 3.6 38.4 -83.5 -3.287
12:13 1030 30.42 859 25.37 22.2 72 29 3.6 38.6 -83.4 -3.283
12:14 1030 30.42 859 25.37 22.3 72.2 34 6 42.9 -83.4 -3.283
12:15 1029 30.39 859 25.37 22.5 72.4 30 4.3 39.8 -83.3 -3.28
12:16 1029 30.39 859 25.37 22.6 72.6 33 5.7 42.2 -83.3 -3.28
12:17 1029 30.39 859 25.37 22.7 72.8 30 4.5 40.2 -83.2 -3.276
12:18 1029 30.39 859 25.37 22.6 72.7 35 6.6 43.9 -83.2 -3.276
12:19 1029 30.39 859 25.37 22.6 72.7 33 5.5 41.9 -83.2 -3.276
12:20 1029 30.39 859 25.37 22.8 73 31 5.2 41.3 -83.1 -3.272
12:21 1029 30.39 859 25.37 22.9 73.1 29 4 39.2 -83.1 -3.272
12:22 1029 30.39 859 25.37 22.9 73.2 29 4.2 39.5 -83 -3.268
12:23 1029 30.39 859 25.37 22.9 73.1 33 5.7 42.3 -83 -3.268
12:24 1029 30.39 859 25.37 22.9 73.1 31 5 41 -83 -3.268
12:25 1029 30.39 859 25.37 22.7 72.9 29 4.1 39.4 -82.9 -3.264
12:26 1029 30.39 859 25.37 22.6 72.7 30 4.1 39.4 -82.9 -3.264
12:27 1029 30.39 858 25.34 22.6 72.7 32 5.3 41.5 -82.9 -3.264
12:28 1029 30.39 859 25.37 22.7 72.8 32 5.5 42 -82.8 -3.26
12:29 1029 30.39 858 25.34 22.8 73 32 5.4 41.7 -82.8 -3.26
12:30 1029 30.39 858 25.34 22.9 73.3 28 3.5 38.4 -82.8 -3.26
12:31 1029 30.39 858 25.34 23 73.3 28 3.7 38.6 -82.7 -3.256
12:32 1029 30.39 858 25.34 23 73.5 28 3.9 39 -82.7 -3.256
12:33 1029 30.39 858 25.34 23.1 73.5 27 3.2 37.8 -82.7 -3.256
12:34 1029 30.39 858 25.34 23.1 73.6 29 4.5 40.1 -82.7 -3.256
12:35 1029 30.39 858 25.34 23.1 73.6 26 2.5 36.5 -82.6 -3.252
12:36 1029 30.39 858 25.34 23.2 73.7 28 4 39.2 -82.6 -3.252
12:37 1029 30.39 858 25.34 23.4 74 27 3.5 38.2 -82.5 -3.248
12:38 1029 30.39 858 25.34 23.5 74.4 29 4.8 40.6 -82.5 -3.248
12:39 1029 30.39 858 25.34 23.6 74.4 28 4.1 39.4 -82.5 -3.248
12:40 1029 30.39 858 25.34 23.5 74.3 30 5 41 -82.4 -3.244
12:41 1029 30.39 858 25.34 23.5 74.2 30 5.2 41.3 -82.4 -3.244
12:42 1029 30.39 858 25.34 23.6 74.4 30 5.1 41.2 -82.4 -3.244
12:43 1029 30.39 858 25.34 23.6 74.4 30 5.2 41.3 -82.3 -3.24
12:44 1029 30.39 858 25.34 23.6 74.4 29 4.5 40.1 -82.3 -3.24
12:45 1029 30.39 858 25.34 23.5 74.3 29 4.5 40 -82.3 -3.24
12:46 1029 30.39 858 25.34 23.5 74.3 26 3.1 37.5 -82.3 -3.24
12:47 1029 30.39 858 25.34 23.6 74.4 28 4.1 39.4 -82.2 -3.236
12:48 1029 30.39 858 25.34 23.6 74.4 29 4.8 40.7 -82.2 -3.236
12:49 1029 30.39 858 25.34 23.7 74.6 25 2.7 36.9 -82.1 -3.232
12:50 1029 30.39 858 25.34 23.7 74.7 27 3.8 38.8 -82.1 -3.232
12:51 1029 30.39 858 25.34 23.7 74.7 28 4.4 40 -82.1 -3.232
12:52 1029 30.39 858 25.34 23.8 74.8 29 5 40.9 -82.1 -3.232
12:53 1029 30.39 858 25.34 23.7 74.7 26 3.1 37.6 -82 -3.228
12:54 1029 30.39 858 25.34 23.6 74.6 27 3.8 38.9 -82 -3.228
12:55 1029 30.39 858 25.34 23.6 74.5 26 3.3 37.9 -82 -3.228
12:56 1029 30.39 858 25.34 23.6 74.6 28 4.3 39.7 -81.9 -3.224
12:57 1029 30.39 858 25.34 23.8 74.8 26 3.5 38.3 -81.9 -3.224
12:58 1029 30.39 858 25.34 23.7 74.7 27 3.7 38.7 -81.9 -3.224
12:59 1029 30.39 858 25.34 23.6 74.5 28 4.4 40 -81.9 -3.224
13:00 1029 30.39 858 25.34 23.6 74.4 28 4.3 39.7 -81.8 -3.22
13:01 1029 30.39 858 25.34 23.6 74.4 26 3.4 38.2 -81.8 -3.22
13:02 1029 30.39 858 25.34 23.6 74.6 27 3.6 38.5 -81.8 -3.22
13:03 1029 30.39 858 25.34 23.7 74.7 28 4.5 40.1 -81.8 -3.22
13:04 1029 30.39 858 25.34 23.7 74.6 26 3.5 38.2 -81.7 -3.217
13:05 1029 30.39 858 25.34 23.7 74.6 28 4.5 40.1 -81.7 -3.217
13:06 1029 30.39 858 25.34 23.7 74.7 26 3.1 37.6 -81.7 -3.217
13:07 1029 30.39 858 25.34 23.7 74.7 27 3.8 38.9 -81.7 -3.217
13:08 1029 30.39 858 25.34 23.7 74.7 27 4 39.2 -81.6 -3.213
13:09 1029 30.39 858 25.34 23.9 75 28 4.3 39.7 -81.6 -3.213
13:10 1029 30.39 858 25.34 24.1 75.4 27 4.2 39.5 -81.6 -3.213
13:11 1029 30.39 858 25.34 24.3 75.7 27 4.3 39.8 -81.6 -3.213
13:12 1029 30.39 858 25.34 24.4 75.8 25 3.1 37.6 -81.6 -3.213
13:13 1029 30.39 858 25.34 24.4 76 28 4.8 40.7 -81.5 -3.209
13:14 1029 30.39 858 25.34 24.5 76.1 30 5.9 42.7 -81.5 -3.209
13:15 1029 30.39 858 25.34 24.6 76.4 24 3.1 37.6 -81.5 -3.209
13:16 1029 30.39 858 25.34 24.5 76.1 28 5 41 -81.5 -3.209
13:17 1029 30.39 858 25.34 24.4 75.9 25 3.3 37.9 -81.5 -3.209
13:18 1029 30.39 858 25.34 24.3 75.7 28 4.6 40.3 -81.4 -3.205
13:19 1029 30.39 858 25.34 24.3 75.8 24 2.9 37.2 -81.4 -3.205
13:20 1029 30.39 858 25.34 24.3 75.8 26 3.8 38.8 -81.4 -3.205
13:21 1029 30.39 858 25.34 24.3 75.7 26 4 39.2 -81.4 -3.205
13:22 1029 30.39 858 25.34 24.2 75.6 28 4.8 40.6 -81.4 -3.205
13:23 1029 30.39 858 25.34 24.3 75.8 27 4.6 40.3 -81.3 -3.201
13:24 1029 30.39 858 25.34 24.4 75.8 27 4.6 40.3 -81.3 -3.201
13:25 1029 30.39 858 25.34 24.4 76 25 3.3 37.9 -81.3 -3.201
13:26 1029 30.39 858 25.34 24.6 76.2 27 4.8 40.6 -81.3 -3.201
13:27 1029 30.39 858 25.34 24.6 76.2 26 4.2 39.6 -81.3 -3.201
13:28 1029 30.39 858 25.34 24.7 76.4 25 3.8 38.8 -81.2 -3.197
13:29 1029 30.39 858 25.34 24.7 76.4 26 4.1 39.4 -81.2 -3.197
13:30 1029 30.39 858 25.34 24.7 76.4 26 4.3 39.7 -81.2 -3.197
13:31 1029 30.39 858 25.34 24.8 76.6 22 1.9 35.4 -81.1 -3.193
13:32 1029 30.39 858 25.34 24.7 76.5 23 2.2 35.9 -81.1 -3.193
13:33 1029 30.39 858 25.34 24.8 76.6 22 2 35.6 -81.1 -3.193
13:34 1029 30.39 858 25.34 24.8 76.6 25 3.8 38.9 -81.1 -3.193
13:35 1028 30.36 858 25.34 24.8 76.7 26 4.1 39.4 -81.1 -3.193
13:36 1028 30.36 858 25.34 24.8 76.7 24 3.4 38.1 -81.1 -3.193
13:37 1029 30.39 858 25.34 24.8 76.6 24 3.1 37.6 -81.1 -3.193
13:38 1028 30.36 858 25.34 24.8 76.6 24 3 37.3 -81 -3.189
13:39 1028 30.36 858 25.34 24.9 76.8 27 4.9 40.9 -81 -3.189
13:40 1028 30.36 858 25.34 25.1 77.2 25 4.1 39.3 -80.9 -3.185
13:41 1028 30.36 858 25.34 25.2 77.3 23 3 37.4 -80.9 -3.185
13:42 1028 30.36 858 25.34 25.2 77.3 23 3 37.3 -80.9 -3.185
13:43 1028 30.36 858 25.34 25.1 77.2 21 1.6 34.9 -80.9 -3.185
13:44 1028 30.36 858 25.34 25.1 77.1 24 3.1 37.5 -80.9 -3.185
13:45 1028 30.36 858 25.34 25 76.9 23 2.4 36.3 -80.9 -3.185
13:46 1028 30.36 858 25.34 24.9 76.9 22 2.2 36 -80.8 -3.181
13:47 1028 30.36 858 25.34 25 77 23 2.6 36.7 -80.8 -3.181
13:48 1028 30.36 858 25.34 25.1 77.1 25 3.9 39.1 -80.8 -3.181
13:49 1028 30.36 858 25.34 25 77 23 2.5 36.6 -80.7 -3.177
13:50 1028 30.36 858 25.34 25 77 22 2.1 35.8 -80.7 -3.177
13:51 1028 30.36 858 25.34 25.1 77.1 24 3.6 38.5 -80.7 -3.177
13:52 1028 30.36 857 25.31 25.1 77.2 24 3.2 37.8 -80.7 -3.177
13:53 1028 30.36 857 25.31 25.1 77.2 23 2.5 36.6 -80.6 -3.173
13:54 1028 30.36 857 25.31 25.1 77.2 24 3.4 38.1 -80.6 -3.173
13:55 1028 30.36 857 25.31 25.2 77.3 24 3.6 38.5 -80.6 -3.173
13:56 1028 30.36 857 25.31 25.2 77.4 26 4.7 40.5 -80.6 -3.173
13:57 1028 30.36 857 25.31 25.4 77.7 26 4.6 40.2 -80.5 -3.169
13:58 1028 30.36 857 25.31 25.6 78.1 21 2 35.6 -80.5 -3.169
13:59 1028 30.36 857 25.31 25.6 78.1 21 2.2 36 -80.5 -3.169
14:00 1028 30.36 857 25.31 25.6 78 22 2.5 36.5 -80.4 -3.165
14:01 1028 30.36 857 25.31 25.5 77.8 24 3.6 38.5 -80.4 -3.165
14:02 1028 30.36 857 25.31 25.5 77.9 25 4 39.3 -80.4 -3.165
14:03 1028 30.36 857 25.31 25.6 78 23 3.3 37.9 -80.4 -3.165
14:04 1028 30.36 857 25.31 25.5 77.9 25 4.1 39.3 -80.3 -3.161
14:05 1028 30.36 857 25.31 25.5 77.8 24 3.5 38.4 -80.3 -3.161
14:06 1028 30.36 857 25.31 25.5 77.9 25 4.5 40.2 -80.3 -3.161
14:07 1028 30.36 857 25.31 25.7 78.2 22 2.3 36.2 -80.2 -3.157
14:08 1028 30.36 857 25.31 25.7 78.3 23 3.2 37.8 -80.2 -3.157
14:09 1028 30.36 857 25.31 25.7 78.2 22 2.5 36.4 -80.2 -3.157
14:10 1028 30.36 857 25.31 25.6 78 25 4.2 39.5 -80.1 -3.154
14:11 1028 30.36 857 25.31 25.6 78.1 21 1.8 35.2 -80.1 -3.154
14:12 1028 30.36 857 25.31 25.6 78 24 3.5 38.4 -80.1 -3.154
14:13 1028 30.36 857 25.31 25.7 78.2 22 2.5 36.5 -80 -3.15
14:14 1028 30.36 857 25.31 25.8 78.5 25 4.8 40.6 -80 -3.15
14:15 1028 30.36 857 25.31 26 78.8 23 3.4 38.2 -80 -3.15
14:16 1028 30.36 857 25.31 26.1 79 25 4.9 40.8 -79.9 -3.146
14:17 1028 30.36 857 25.31 26.3 79.3 22 3.2 37.8 -79.9 -3.146
14:18 1028 30.36 857 25.31 26.3 79.4 23 3.7 38.7 -79.9 -3.146
14:19 1028 30.36 857 25.31 26.2 79.2 22 3.2 37.7 -79.8 -3.142
14:20 1028 30.36 857 25.31 26.2 79.2 22 3.2 37.7 -79.8 -3.142
14:21 1028 30.36 857 25.31 26.1 79 22 2.8 37 -79.7 -3.138
14:22 1028 30.36 857 25.31 26.3 79.3 23 3.8 38.9 -79.7 -3.138
14:23 1028 30.36 857 25.31 26.5 79.6 23 3.8 38.9 -79.6 -3.134
14:24 1028 30.36 857 25.31 26.5 79.6 23 3.8 38.9 -79.6 -3.134
14:25 1028 30.36 857 25.31 26.4 79.5 19 1.1 34 -79.5 -3.13
14:26 1028 30.36 857 25.31 26.3 79.4 23 3.7 38.7 -79.5 -3.13
14:27 1028 30.36 857 25.31 26.4 79.4 21 2.3 36.1 -79.4 -3.126
14:28 1028 30.36 857 25.31 26.4 79.4 22 2.9 37.3 -79.5 -3.13
14:29 1028 30.36 857 25.31 26.3 79.4 19 1.1 33.9 -79.4 -3.126
14:30 1028 30.36 857 25.31 26.2 79.2 19 1.3 34.4 -79.3 -3.122
14:31 1028 30.36 857 25.31 26.3 79.3 19 0.8 33.4 -79.3 -3.122
14:32 1028 30.36 857 25.31 26.5 79.7 19 1.4 34.6 -79.2 -3.118
14:33 1028 30.36 857 25.31 26.5 79.7 18 0.4 32.7 -79.1 -3.114
14:34 1028 30.36 857 25.31 26.3 79.3 20 1.5 34.8 -79.1 -3.114
14:35 1028 30.36 857 25.31 26.3 79.4 21 2.2 36 -79 -3.11
14:36 1028 30.36 857 25.31 26.5 79.7 17 -0.3 31.5 -79 -3.11
14:37 1028 30.36 857 25.31 26.6 79.8 17 -0.2 31.7 -78.9 -3.106
14:38 1028 30.36 857 25.31 26.4 79.6 17 -0.2 31.6 -78.9 -3.106
14:39 1028 30.36 857 25.31 26.4 79.5 20 2 35.5 -78.8 -3.102
14:40 1028 30.36 857 25.31 26.5 79.7 22 3.3 38 -78.7 -3.098
14:41 1028 30.36 857 25.31 26.6 80 18 0.3 32.5 -78.7 -3.098
14:42 1028 30.36 857 25.31 26.5 79.6 20 2.2 36 -78.6 -3.094
14:43 1028 30.36 857 25.31 26.4 79.5 19 0.9 33.6 -78.6 -3.094
14:44 1028 30.36 857 25.31 26.3 79.4 20 1.6 34.8 -78.5 -3.091
14:45 1028 30.36 857 25.31 26.4 79.5 19 0.9 33.7 -78.5 -3.091
14:46 1028 30.36 857 25.31 26.5 79.7 18 0.7 33.2 -78.4 -3.087
14:47 1028 30.36 857 25.31 26.5 79.7 21 2.8 37.1 -78.3 -3.083
14:48 1028 30.36 857 25.31 26.5 79.7 20 2.3 36.2 -78.3 -3.083
14:49 1028 30.36 857 25.31 26.4 79.5 20 2.1 35.7 -78.2 -3.079
14:50 1028 30.36 857 25.31 26.4 79.4 18 0.1 32.2 -78.1 -3.075
14:51 1028 30.36 857 25.31 26.4 79.4 18 0.3 32.5 -78.1 -3.075
14:52 1028 30.36 857 25.31 26.3 79.4 20 1.6 34.9 -78 -3.071
14:53 1028 30.36 857 25.31 26.2 79.2 18 0.5 32.8 -78 -3.071
14:54 1028 30.36 857 25.31 26 78.8 21 1.9 35.5 -77.9 -3.067
14:55 1028 30.36 857 25.31 25.8 78.4 22 2.8 37.1 -77.9 -3.067
14:56 1028 30.36 857 25.31 25.7 78.2 19 0.8 33.5 -77.8 -3.063
14:57 1028 30.36 857 25.31 25.5 77.8 19 0.6 33.1 -77.8 -3.063
14:58 1028 30.36 857 25.31 25.4 77.7 22 2.2 36 -77.7 -3.059
14:59 1027 30.33 857 25.31 25.3 77.5 20 0.6 33.1 -77.7 -3.059
15:00 1028 30.36 857 25.31 25.1 77.3 22 2 35.6 -77.6 -3.055
15:01 1028 30.36 857 25.31 25.1 77.1 21 1.6 34.8 -77.6 -3.055
15:02 1027 30.33 857 25.31 25.1 77.1 24 3.1 37.5 -77.7 -3.059
15:03 1027 30.33 857 25.31 25.1 77.2 21 1.5 34.7 -77.6 -3.055
15:04 1027 30.33 857 25.31 25.2 77.3 23 2.8 37 -77.6 -3.055
15:05 1027 30.33 857 25.31 25.3 77.5 21 1.7 35 -77.6 -3.055
15:06 1027 30.33 857 25.31 25.5 77.8 23 3.1 37.6 -77.5 -3.051
15:07 1027 30.33 857 25.31 25.6 78.1 22 2.5 36.4 -77.5 -3.051
15:08 1027 30.33 857 25.31 25.8 78.4 21 2 35.6 -77.5 -3.051
15:09 1027 30.33 857 25.31 25.8 78.4 25 4.3 39.7 -77.6 -3.055
15:10 1027 30.33 857 25.31 25.9 78.6 24 4.2 39.5 -77.6 -3.055
15:11 1027 30.33 857 25.31 26 78.8 22 2.7 36.8 -77.6 -3.055
15:12 1027 30.33 857 25.31 25.9 78.6 23 3.2 37.8 -77.6 -3.055
15:13 1027 30.33 857 25.31 25.7 78.3 22 2.5 36.5 -77.6 -3.055
15:14 1027 30.33 857 25.31 25.6 78.1 22 2.3 36.2 -77.6 -3.055
15:15 1027 30.33 857 25.31 25.5 77.9 23 2.9 37.1 -77.6 -3.055
15:16 1027 30.33 857 25.31 25.5 77.8 20 0.8 33.4 -77.6 -3.055
15:17 1027 30.33 857 25.31 25.4 77.8 20 0.9 33.7 -77.6 -3.055
15:18 1027 30.33 857 25.31 25.5 77.9 24 3.4 38.2 -77.6 -3.055
15:19 1027 30.33 857 25.31 25.6 78 19 0.4 32.7 -77.6 -3.055
15:20 1027 30.33 857 25.31 25.6 78.1 21 1.8 35.2 -77.6 -3.055
15:21 1027 30.33 857 25.31 25.6 78 21 1.6 34.8 -77.6 -3.055
15:22 1027 30.33 857 25.31 25.5 77.8 20 0.9 33.7 -77.6 -3.055
15:23 1027 30.33 857 25.31 25.4 77.6 21 1.9 35.4 -77.6 -3.055
15:24 1027 30.33 857 25.31 25.2 77.4 21 1.4 34.6 -77.6 -3.055
15:25 1027 30.33 857 25.31 25.2 77.4 21 1.8 35.3 -77.6 -3.055
15:26 1027 30.33 857 25.31 25.3 77.5 20 0.7 33.2 -77.7 -3.059
15:27 1027 30.33 857 25.31 25.3 77.6 22 2.4 36.2 -77.7 -3.059
15:28 1027 30.33 856 25.28 25.5 77.9 17 -1.1 30 -77.7 -3.059
15:29 1027 30.33 856 25.28 25.7 78.2 17 -0.7 30.7 -77.7 -3.059
15:30 1027 30.33 856 25.28 25.9 78.6 18 0.1 32.2 -77.8 -3.063
15:31 1027 30.33 856 25.28 26.2 79.1 17 -0.7 30.8 -77.8 -3.063
15:32 1027 30.33 856 25.28 26.4 79.5 17 -0.3 31.4 -77.8 -3.063
15:33 1027 30.33 856 25.28 26.5 79.8 16 -0.9 30.4 -77.8 -3.063
15:34 1027 30.33 856 25.28 26.6 79.9 17 0.2 32.4 -77.8 -3.063
15:35 1027 30.33 856 25.28 26.7 80.1 16 -0.7 30.8 -77.8 -3.063
15:36 1027 30.33 856 25.28 26.7 80.1 17 -0.2 31.6 -77.8 -3.063
15:37 1027 30.33 856 25.28 26.8 80.3 18 0.5 32.8 -77.8 -3.063
15:38 1027 30.33 856 25.28 27 80.6 17 0.4 32.7 -77.8 -3.063
15:39 1027 30.33 856 25.28 27.2 81 17 0.5 32.9 -77.7 -3.059
15:40 1027 30.33 856 25.28 27.5 81.5 14 -2.1 28.1 -77.7 -3.059
15:41 1027 30.33 856 25.28 27.5 81.4 18 1.4 34.6 -77.6 -3.055
15:42 1027 30.33 856 25.28 27.5 81.4 16 -0.4 31.3 -77.6 -3.055
15:43 1027 30.33 856 25.28 27.5 81.4 18 1.5 34.7 -77.6 -3.055
15:44 1027 30.33 856 25.28 27.5 81.5 16 0.2 32.3 -77.5 -3.051
15:45 1027 30.33 856 25.28 27.4 81.3 14 -2.2 28.1 -77.5 -3.051
15:46 1027 30.33 856 25.28 27.4 81.3 15 -0.9 30.3 -77.4 -3.047
15:47 1027 30.33 856 25.28 27.5 81.4 14 -2.2 28 -77.3 -3.043
15:48 1027 30.33 856 25.28 27.5 81.5 16 -0.1 31.8 -77.2 -3.039
15:49 1027 30.33 856 25.28 27.4 81.4 16 0.1 32.2 -77.1 -3.035
15:50 1027 30.33 856 25.28 27.4 81.3 16 -0.1 31.7 -77.1 -3.035
15:51 1027 30.33 856 25.28 27.3 81.1 17 0.2 32.4 -77 -3.031
15:52 1027 30.33 856 25.28 27.1 80.8 20 2.8 37.1 -76.9 -3.028
15:53 1027 30.33 856 25.28 27 80.6 20 2.3 36.2 -76.8 -3.024
15:54 1027 30.33 856 25.28 26.8 80.2 17 -0.3 31.4 -76.8 -3.024
15:55 1027 30.33 856 25.28 26.6 79.8 15 -1.7 29 -76.7 -3.02
15:56 1027 30.33 856 25.28 26.5 79.7 17 -0.2 31.7 -76.6 -3.016
15:57 1027 30.33 856 25.28 26.5 79.7 20 2.3 36.2 -76.5 -3.012
15:58 1027 30.33 856 25.28 26.4 79.5 19 0.9 33.6 -76.5 -3.012
15:59 1027 30.33 856 25.28 26.3 79.4 15 -1.8 28.7 -76.4 -3.008
16:00 1027 30.33 856 25.28 26.4 79.5 18 0.3 32.6 -76.4 -3.008
16:01 1027 30.33 856 25.28 26.4 79.6 19 1.3 34.3 -76.3 -3.004
16:02 1027 30.33 856 25.28 26.5 79.7 17 -0.4 31.3 -76.3 -3.004
16:03 1027 30.33 856 25.28 26.5 79.8 18 0.5 32.9 -76.3 -3.004
16:04 1027 30.33 856 25.28 26.4 79.6 17 -0.4 31.2 -76.3 -3.004
16:05 1027 30.33 856 25.28 26.3 79.4 17 -0.5 31.1 -76.3 -3.004
16:06 1027 30.33 856 25.28 26.2 79.2 18 0.5 32.9 -76.3 -3.004
16:07 1027 30.33 856 25.28 26.2 79.1 20 1.5 34.7 -76.2 -3
16:08 1027 30.33 856 25.28 26.1 79 19 1.2 34.1 -76.2 -3
16:09 1027 30.33 856 25.28 26.1 78.9 18 0.5 32.9 -76.2 -3
16:10 1027 30.33 856 25.28 26 78.8 20 1.8 35.3 -76.2 -3
16:11 1027 30.33 856 25.28 26 78.9 18 -0.1 31.8 -76.3 -3.004
16:12 1027 30.33 856 25.28 26 78.9 18 0.4 32.8 -76.3 -3.004
16:13 1027 30.33 856 25.28 26 78.7 20 1.4 34.6 -76.3 -3.004
16:14 1027 30.33 856 25.28 25.9 78.6 21 2.2 35.9 -76.3 -3.004
16:15 1027 30.33 856 25.28 25.9 78.5 21 1.9 35.5 -76.3 -3.004
16:16 1027 30.33 856 25.28 25.8 78.4 19 0.9 33.5 -76.3 -3.004
16:17 1027 30.33 856 25.28 25.7 78.3 20 1.1 34 -76.4 -3.008
16:18 1027 30.33 856 25.28 25.8 78.4 19 0.9 33.6 -76.4 -3.008
16:19 1027 30.33 856 25.28 25.8 78.5 19 0.7 33.3 -76.4 -3.008
16:20 1027 30.33 856 25.28 25.9 78.6 17 -0.5 31.1 -76.4 -3.008
16:21 1027 30.33 856 25.28 25.9 78.6 21 2 35.6 -76.5 -3.012
16:22 1027 30.33 856 25.28 25.9 78.6 19 0.8 33.4 -76.5 -3.012
16:23 1027 30.33 856 25.28 26 78.8 18 0.3 32.5 -76.6 -3.016
16:24 1027 30.33 856 25.28 26.2 79.1 22 3.1 37.6 -76.6 -3.016
16:25 1027 30.33 856 25.28 26.5 79.6 20 1.9 35.4 -76.6 -3.016
16:26 1027 30.33 856 25.28 26.6 79.8 19 1.4 34.5 -76.6 -3.016
16:27 1027 30.33 856 25.28 26.5 79.6 16 -0.7 30.7 -76.7 -3.02
16:28 1027 30.33 856 25.28 26.5 79.6 16 -0.9 30.5 -76.7 -3.02
16:29 1027 30.33 856 25.28 26.4 79.5 17 -0.7 30.8 -76.7 -3.02
16:30 1027 30.33 856 25.28 26.4 79.6 17 -0.5 31.1 -76.7 -3.02
16:31 1027 30.33 856 25.28 26.5 79.7 17 0.1 32.2 -76.7 -3.02
16:32 1027 30.33 856 25.28 26.6 79.9 19 1.6 34.8 -76.7 -3.02
16:33 1027 30.33 856 25.28 26.7 80 17 -0.2 31.7 -76.7 -3.02
16:34 1027 30.33 856 25.28 26.6 79.8 20 1.8 35.2 -76.7 -3.02
16:35 1027 30.33 856 25.28 26.6 79.8 19 1.1 34 -76.8 -3.024
16:36 1027 30.33 856 25.28 26.7 80 19 1.2 34.2 -76.8 -3.024
16:37 1027 30.33 856 25.28 26.9 80.4 19 1.8 35.2 -76.8 -3.024
16:38 1027 30.33 856 25.28 26.9 80.4 19 1.9 35.4 -76.8 -3.024
16:39 1027 30.33 856 25.28 26.7 80.1 20 2.1 35.8 -76.8 -3.024
16:40 1027 30.33 856 25.28 26.6 79.9 16 -1.2 29.9 -76.8 -3.024
16:41 1027 30.33 856 25.28 26.6 79.9 18 0.9 33.6 -76.7 -3.02
16:42 1027 30.33 856 25.28 26.6 79.9 17 -0.1 31.8 -76.7 -3.02
16:43 1027 30.33 856 25.28 26.5 79.6 16 -1.1 30 -76.7 -3.02
16:44 1027 30.33 856 25.28 26.3 79.4 16 -1.1 30.1 -76.7 -3.02
16:45 1027 30.33 856 25.28 26.3 79.3 16 -1.4 29.5 -76.7 -3.02
16:46 1027 30.33 856 25.28 26.2 79.2 16 -1 30.2 -76.6 -3.016
16:47 1027 30.33 856 25.28 26.2 79.1 17 -0.4 31.3 -76.6 -3.016
16:48 1027 30.33 856 25.28 26.1 78.9 18 0.5 33 -76.6 -3.016
16:49 1027 30.33 856 25.28 26 78.9 18 0.4 32.8 -76.6 -3.016
16:50 1027 30.33 856 25.28 26.1 79 19 1 33.8 -76.6 -3.016
16:51 1027 30.33 856 25.28 26.1 79 16 -1.7 29 -76.6 -3.016
16:52 1027 30.33 856 25.28 26.1 79 17 -0.9 30.4 -76.6 -3.016
16:53 1027 30.33 856 25.28 26.2 79.1 18 0.2 32.3 -76.6 -3.016
16:54 1027 30.33 856 25.28 26.2 79.2 17 -0.4 31.3 -76.6 -3.016
16:55 1027 30.33 856 25.28 26.3 79.3 19 1 33.8 -76.6 -3.016
16:56 1027 30.33 856 25.28 26.3 79.3 25 4.9 40.9 -76.6 -3.016
16:57 1027 30.33 856 25.28 26.3 79.3 24 4.6 40.3 -76.6 -3.016
16:58 1027 30.33 856 25.28 26.4 79.4 24 4.2 39.6 -76.6 -3.016
16:59 1027 30.33 856 25.28 26.3 79.4 24 4.5 40 -76.6 -3.016
17:00 1027 30.33 856 25.28 26.2 79.2 26 5.4 41.8 -76.6 -3.016
17:01 1027 30.33 856 25.28 26.1 79 28 6.7 44 -76.6 -3.016
17:02 1027 30.33 856 25.28 25.9 78.7 28 6.3 43.3 -76.7 -3.02
17:03 1027 30.33 856 25.28 25.8 78.5 17 -0.5 31.1 -76.7 -3.02
17:04 1027 30.33 856 25.28 25.8 78.4 18 -0.4 31.2 -76.7 -3.02
17:05 1027 30.33 856 25.28 25.8 78.4 17 -0.5 31.1 -76.8 -3.024
17:06 1027 30.33 856 25.28 25.8 78.4 17 -0.6 31 -76.8 -3.024
17:07 1027 30.33 856 25.28 25.8 78.5 17 -0.8 30.5 -76.8 -3.024
17:08 1027 30.33 856 25.28 25.9 78.6 17 -1.2 29.9 -76.9 -3.028
17:09 1027 30.33 856 25.28 25.9 78.7 19 0.9 33.6 -76.9 -3.028
17:10 1027 30.33 856 25.28 25.9 78.7 16 -1.4 29.5 -77 -3.031
17:11 1027 30.33 856 25.28 25.9 78.7 16 -1.5 29.3 -77 -3.031
17:12 1027 30.33 856 25.28 26 78.8 17 -1 30.2 -77.1 -3.035
17:13 1027 30.33 856 25.28 26 78.8 16 -1.2 29.9 -77.1 -3.035
17:14 1027 30.33 856 25.28 26 78.9 18 -0 31.9 -77.2 -3.039
17:15 1027 30.33 856 25.28 26.1 78.9 18 0.2 32.3 -77.2 -3.039
17:16 1027 30.33 856 25.28 26.1 78.9 17 -0.6 30.8 -77.3 -3.043
17:17 1027 30.33 856 25.28 26 78.9 16 -1.5 29.3 -77.3 -3.043
17:18 1027 30.33 856 25.28 26 78.8 16 -1.5 29.3 -77.4 -3.047
17:19 1027 30.33 856 25.28 26 78.9 18 -0 31.9 -77.4 -3.047
17:20 1027 30.33 856 25.28 26 78.9 16 -1.2 29.8 -77.4 -3.047
17:21 1027 30.33 856 25.28 26 78.9 17 -0.6 30.9 -77.5 -3.051
17:22 1027 30.33 856 25.28 26 78.8 20 1.2 34.2 -77.5 -3.051
17:23 1027 30.33 856 25.28 26 78.7 21 2.4 36.3 -77.6 -3.055
17:24 1027 30.33 856 25.28 25.8 78.5 22 3 37.3 -77.6 -3.055
17:25 1027 30.33 856 25.28 25.6 78.1 22 2.3 36.2 -77.6 -3.055
17:26 1027 30.33 856 25.28 25.3 77.6 24 3.5 38.3 -77.7 -3.059
17:27 1027 30.33 856 25.28 25.1 77.2 26 4.3 39.8 -77.7 -3.059
17:28 1027 30.33 856 25.28 24.9 76.8 26 4.2 39.6 -77.8 -3.063
17:29 1027 30.33 856 25.28 24.7 76.4 32 6.9 44.5 -77.8 -3.063
17:30 1027 30.33 856 25.28 24.4 76 34 7.8 46 -77.8 -3.063
17:31 1027 30.33 856 25.28 24.2 75.5 32 6.9 44.3 -77.9 -3.067
17:32 1027 30.33 856 25.28 23.9 75 31 5.7 42.3 -77.9 -3.067
17:33 1027 30.33 856 25.28 23.7 74.7 31 5.8 42.4 -78 -3.071
17:34 1027 30.33 856 25.28 23.6 74.5 32 6.1 43 -78.1 -3.075
17:35 1027 30.33 856 25.28 23.5 74.3 34 6.8 44.2 -78.1 -3.075
17:36 1027 30.33 856 25.28 23.4 74 33 6.4 43.6 -78.2 -3.079
17:37 1027 30.33 856 25.28 23.2 73.8 33 6.5 43.6 -78.2 -3.079
17:38 1027 30.33 856 25.28 23.2 73.7 35 7.2 44.9 -78.3 -3.083
17:39 1027 30.33 856 25.28 23.1 73.5 36 7.3 45.1 -78.4 -3.087
17:40 1027 30.33 856 25.28 22.9 73.2 40 9 48.1 -78.4 -3.087
17:41 1027 30.33 856 25.28 22.7 72.9 40 8.6 47.5 -78.5 -3.091
17:42 1027 30.33 856 25.28 22.5 72.5 40 8.3 47 -78.6 -3.094
17:43 1026 30.3 856 25.28 22.5 72.4 39 8 46.5 -78.6 -3.094
17:44 1027 30.33 856 25.28 22.5 72.4 36 6.8 44.2 -78.7 -3.098
17:45 1026 30.3 856 25.28 22.5 72.5 36 6.9 44.4 -78.8 -3.102
17:46 1026 30.3 856 25.28 22.6 72.7 34 6.3 43.3 -78.8 -3.102
17:47 1026 30.3 856 25.28 22.7 72.9 32 5.3 41.5 -78.9 -3.106
17:48 1027 30.33 856 25.28 22.8 73.1 29 4.2 39.5 -79 -3.11
17:49 1027 30.33 856 25.28 23 73.5 24 1.4 34.4 -79.1 -3.114
17:50 1026 30.3 856 25.28 23.3 73.9 25 2.2 36 -79.2 -3.118
17:51 1026 30.3 856 25.28 23.5 74.3 22 1.1 34 -79.2 -3.118
17:52 1026 30.3 856 25.28 23.8 74.8 23 1.7 35.1 -79.3 -3.122
17:53 1026 30.3 856 25.28 23.9 75 21 0.4 32.7 -79.4 -3.126
17:54 1026 30.3 856 25.28 24.1 75.4 20 -0.2 31.6 -79.5 -3.13
17:55 1026 30.3 856 25.28 24.3 75.7 21 0.8 33.5 -79.5 -3.13
17:56 1026 30.3 856 25.28 24.4 75.9 22 1.2 34.2 -79.6 -3.134
17:57 1027 30.33 856 25.28 24.5 76.1 24 2.9 37.3 -79.7 -3.138
17:58 1027 30.33 856 25.28 24.4 76 40 10.3 50.6 -79.7 -3.138
17:59 1027 30.33 856 25.28 23.8 74.9 36 8.1 46.6 -79.8 -3.142
18:00 1027 30.33 856 25.28 23.4 74.1 34 7 44.6 -79.9 -3.146
18:01 1027 30.33 856 25.28 23.1 73.5 43 9.9 49.8 -79.9 -3.146
18:02 1027 30.33 856 25.28 22.7 72.9 30 4.7 40.4 -79.9 -3.146
18:03 1027 30.33 856 25.28 22.7 72.8 31 4.8 40.6 -80 -3.15
18:04 1027 30.33 856 25.28 22.7 72.8 29 4.2 39.5 -80 -3.15
18:05 1027 30.33 856 25.28 22.7 72.9 30 4.7 40.4 -80.1 -3.154
18:06 1027 30.33 856 25.28 22.8 73 33 6.1 42.9 -80.2 -3.157
18:07 1027 30.33 856 25.28 22.8 73 29 4.1 39.4 -80.2 -3.157
18:08 1027 30.33 856 25.28 22.9 73.2 27 2.9 37.3 -80.3 -3.161
18:09 1027 30.33 856 25.28 23.1 73.6 28 3.7 38.7 -80.3 -3.161
18:10 1027 30.33 856 25.28 23.2 73.8 29 4.2 39.5 -80.4 -3.165
18:11 1027 30.33 856 25.28 23.4 74 21 0.3 32.6 -80.5 -3.169
18:12 1027 30.33 856 25.28 23.6 74.4 20 -0.3 31.4 -80.5 -3.169
18:13 1027 30.33 856 25.28 23.8 74.8 21 0.3 32.6 -80.5 -3.169
18:14 1027 30.33 856 25.28 24 75.2 20 -0.3 31.5 -80.6 -3.173
18:15 1027 30.33 856 25.28 24.2 75.6 19 -0.5 31.1 -80.7 -3.177
18:16 1027 30.33 856 25.28 24.4 76 19 -0.5 31.2 -80.7 -3.177
18:17 1027 30.33 856 25.28 24.6 76.2 19 -0.1 31.8 -80.8 -3.181
18:18 1027 30.33 856 25.28 24.7 76.5 19 -0.1 31.9 -80.8 -3.181
18:19 1027 30.33 856 25.28 24.8 76.6 22 2.1 35.9 -80.9 -3.185
18:20 1027 30.33 856 25.28 24.7 76.4 23 2.5 36.5 -80.9 -3.185
18:21 1027 30.33 856 25.28 24.6 76.3 19 -0.3 31.5 -80.9 -3.185
18:22 1027 30.33 856 25.28 24.6 76.4 21 1 33.8 -81 -3.189
18:23 1027 30.33 856 25.28 24.7 76.4 25 3.3 38 -81.1 -3.193
18:24 1027 30.33 856 25.28 24.5 76.1 21 1.2 34.2 -81.1 -3.193
18:25 1027 30.33 856 25.28 24.4 75.9 24 2.8 37 -81.1 -3.193
18:26 1027 30.33 856 25.28 24.3 75.8 21 0.9 33.6 -81.1 -3.193
18:27 1027 30.33 856 25.28 24.2 75.6 23 1.9 35.4 -81.1 -3.193
18:28 1027 30.33 856 25.28 24.2 75.6 20 0.2 32.4 -81.1 -3.193
18:29 1027 30.33 856 25.28 24.3 75.7 22 1.1 34.1 -81.2 -3.197
18:30 1027 30.33 856 25.28 24.4 75.8 22 1.6 34.9 -81.2 -3.197
18:31 1027 30.33 856 25.28 24.3 75.8 24 2.5 36.4 -81.3 -3.201
18:32 1027 30.33 856 25.28 24.3 75.8 25 3.5 38.3 -81.3 -3.201
18:33 1027 30.33 856 25.28 24.3 75.7 26 4 39.1 -81.3 -3.201
18:34 1027 30.33 856 25.28 24.2 75.5 21 0.9 33.6 -81.3 -3.201
18:35 1027 30.33 856 25.28 24.1 75.4 21 0.5 32.9 -81.3 -3.201
18:36 1027 30.33 856 25.28 24.1 75.4 22 1.4 34.5 -81.3 -3.201
18:37 1027 30.33 856 25.28 24.1 75.3 21 0.4 32.8 -81.3 -3.201
18:38 1027 30.33 856 25.28 24.1 75.3 20 -0.1 31.8 -81.4 -3.205
18:39 1027 30.33 856 25.28 24.1 75.3 21 0.6 33.1 -81.4 -3.205
18:40 1027 30.33 856 25.28 24.1 75.3 21 0.8 33.5 -81.4 -3.205
18:41 1027 30.33 856 25.28 24 75.2 22 1.1 34 -81.5 -3.209
18:42 1027 30.33 856 25.28 23.9 75 24 2.5 36.5 -81.5 -3.209
18:43 1027 30.33 856 25.28 23.8 74.8 24 2.3 36.2 -81.5 -3.209
18:44 1027 30.33 856 25.28 23.7 74.6 21 0.6 33.1 -81.6 -3.213
18:45 1027 30.33 856 25.28 23.7 74.6 22 0.7 33.3 -81.6 -3.213
18:46 1027 30.33 856 25.28 23.6 74.5 21 0.3 32.5 -81.6 -3.213
18:47 1027 30.33 856 25.28 23.6 74.5 22 1.1 34 -81.6 -3.213
18:48 1027 30.33 856 25.28 23.6 74.6 21 0.1 32.1 -81.7 -3.217
18:49 1027 30.33 856 25.28 23.7 74.6 21 0.4 32.7 -81.7 -3.217
18:50 1027 30.33 856 25.28 23.7 74.6 22 1 33.8 -81.7 -3.217
18:51 1027 30.33 856 25.28 23.7 74.6 23 1.4 34.5 -81.8 -3.22
18:52 1027 30.33 856 25.28 23.6 74.5 23 1.3 34.3 -81.8 -3.22
18:53 1027 30.33 856 25.28 23.5 74.3 22 0.7 33.2 -81.8 -3.22
18:54 1027 30.33 856 25.28 23.4 74.2 22 0.7 33.2 -81.9 -3.224
18:55 1027 30.33 856 25.28 23.4 74.1 22 0.9 33.7 -81.9 -3.224
18:56 1027 30.33 856 25.28 23.3 74 23 1.1 34 -81.9 -3.224
18:57 1027 30.33 856 25.28 23.3 73.9 22 0.6 33 -82 -3.228
18:58 1027 30.33 856 25.28 23.2 73.8 22 0.3 32.5 -82 -3.228
18:59 1027 30.33 856 25.28 23.2 73.7 22 0.3 32.6 -82 -3.228
19:00 1027 30.33 856 25.28 23.2 73.7 22 0.6 33.1 -82.1 -3.232
19:01 1027 30.33 856 25.28 23.1 73.6 21 -0.2 31.7 -82.1 -3.232
19:02 1027 30.33 856 25.28 23.1 73.6 22 0.4 32.7 -82.1 -3.232
19:03 1027 30.33 856 25.28 23.2 73.8 21 0.2 32.3 -82.1 -3.232
19:04 1027 30.33 856 25.28 23.2 73.8 21 -0.2 31.6 -82.2 -3.236
19:05 1027 30.33 856 25.28 23.3 73.9 21 -0.3 31.4 -82.2 -3.236
19:06 1027 30.33 856 25.28 23.3 74 21 -0 32 -82.2 -3.236
19:07 1027 30.33 856 25.28 23.4 74.1 22 1 33.7 -82.3 -3.24
19:08 1027 30.33 856 25.28 23.3 74 22 0.8 33.4 -82.3 -3.24
19:09 1027 30.33 856 25.28 23.3 73.9 22 0.4 32.7 -82.3 -3.24
19:10 1027 30.33 856 25.28 23.2 73.7 22 0.2 32.4 -82.4 -3.244
19:11 1027 30.33 856 25.28 23.1 73.5 22 0.6 33.1 -82.4 -3.244
19:12 1027 30.33 856 25.28 23.1 73.5 25 2.1 35.8 -82.5 -3.248
19:13 1027 30.33 856 25.28 22.9 73.2 24 1.3 34.3 -82.5 -3.248
19:14 1027 30.33 856 25.28 22.8 73 26 2.3 36.2 -82.5 -3.248
19:15 1027 30.33 856 25.28 22.4 72.3 25 1.4 34.4 -82.5 -3.248
19:16 1027 30.33 856 25.28 22.1 71.8 24 0.8 33.5 -82.6 -3.252
19:17 1027 30.33 856 25.28 22.1 71.7 24 0.8 33.5 -82.6 -3.252
19:18 1027 30.33 856 25.28 22.1 71.7 31 4.3 39.7 -82.6 -3.252
19:19 1027 30.33 856 25.28 21.7 71.1 29 3.3 37.9 -82.7 -3.256
19:20 1027 30.33 856 25.28 21.3 70.4 28 2.3 36.2 -82.7 -3.256
19:21 1027 30.33 856 25.28 21.2 70.2 26 0.9 33.7 -82.7 -3.256
19:22 1027 30.33 856 25.28 21.3 70.3 25 0.8 33.4 -82.8 -3.26
19:23 1027 30.33 856 25.28 21.4 70.4 31 3.9 39 -82.8 -3.26
19:24 1027 30.33 856 25.28 21.3 70.3 31 3.5 38.3 -82.9 -3.264
19:25 1027 30.33 856 25.28 21.1 69.9 34 4.8 40.7 -82.9 -3.264
19:26 1027 30.33 856 25.28 20.6 69 34 4.3 39.7 -82.9 -3.264
19:27 1027 30.33 856 25.28 20.1 68.1 33 3.3 37.9 -83 -3.268
19:28 1027 30.33 856 25.28 19.9 67.9 29 1.7 35.1 -83 -3.268
19:29 1027 30.33 856 25.28 20 67.9 29 1.4 34.5 -83 -3.268
19:30 1027 30.33 856 25.28 20.1 68.1 42 6.8 44.2 -83.1 -3.272
19:31 1027 30.33 856 25.28 19.8 67.6 33 3.2 37.8 -83.1 -3.272
19:32 1027 30.33 856 25.28 19.7 67.5 29 1.3 34.3 -83.2 -3.276
19:33 1027 30.33 856 25.28 19.9 67.8 27 0.7 33.2 -83.2 -3.276
19:34 1027 30.33 856 25.28 20.1 68.3 26 0.4 32.7 -83.3 -3.28
19:35 1027 30.33 856 25.28 20.2 68.4 38 5.7 42.3 -83.3 -3.28
19:36 1027 30.33 856 25.28 19.7 67.5 37 4.7 40.4 -83.3 -3.28
19:37 1027 30.33 856 25.28 19.5 67.1 33 3 37.3 -83.4 -3.283
19:38 1027 30.33 856 25.28 19.5 67.1 32 2.5 36.5 -83.4 -3.283
19:39 1027 30.33 856 25.28 19.6 67.2 39 5.6 42 -83.5 -3.287
19:40 1027 30.33 856 25.28 19.2 66.5 33 2.7 36.8 -83.5 -3.287
19:41 1027 30.33 856 25.28 19 66.2 30 1.2 34.1 -83.6 -3.291
19:42 1027 30.33 856 25.28 19.3 66.7 29 0.7 33.3 -83.6 -3.291
19:43 1027 30.33 856 25.28 19.6 67.3 27 0.5 32.8 -83.6 -3.291
19:44 1027 30.33 856 25.28 19.8 67.6 31 2.5 36.4 -83.7 -3.295
19:45 1027 30.33 856 25.28 19.8 67.6 28 1.1 34.1 -83.7 -3.295
19:46 1027 30.33 856 25.28 20 68 36 4.6 40.2 -83.8 -3.299
19:47 1027 30.33 856 25.28 19.9 67.8 32 2.7 36.8 -83.8 -3.299
19:48 1027 30.33 856 25.28 19.4 67 43 6.6 43.8 -83.9 -3.303
19:49 1027 30.33 856 25.28 18.8 65.8 34 2.6 36.7 -83.9 -3.303
19:50 1027 30.33 856 25.28 18.7 65.7 37 3.9 39.1 -83.9 -3.303
19:51 1027 30.33 856 25.28 18.6 65.5 32 1.9 35.5 -84 -3.307
19:52 1027 30.33 856 25.28 19 66.1 31 1.4 34.6 -84 -3.307
19:53 1027 30.33 856 25.28 19.3 66.8 42 6.3 43.4 -84 -3.307
19:54 1027 30.33 856 25.28 19.1 66.4 45 6.9 44.5 -84.1 -3.311
19:55 1027 30.33 856 25.28 18.5 65.2 46 6.8 44.2 -84.1 -3.311
19:56 1027 30.33 856 25.28 17.9 64.2 49 7 44.6 -84.1 -3.311
19:57 1027 30.33 856 25.28 17.4 63.3 48 6.5 43.7 -84.2 -3.315
19:58 1027 30.33 856 25.28 17.1 62.8 48 6.1 42.9 -84.2 -3.315
19:59 1027 30.33 856 25.28 17 62.6 51 6.8 44.3 -84.2 -3.315
20:00 1027 30.33 856 25.28 16.9 62.5 47 5.7 42.2 -84.3 -3.319
20:01 1027 30.33 856 25.28 16.9 62.4 50 6.4 43.5 -84.3 -3.319
20:02 1027 30.33 856 25.28 16.9 62.4 51 6.9 44.4 -84.3 -3.319
20:03 1027 30.33 856 25.28 16.8 62.2 55 7.9 46.2 -84.4 -3.323
20:04 1027 30.33 856 25.28 16.4 61.6 56 7.8 46 -84.4 -3.323
20:05 1027 30.33 856 25.28 16.2 61.1 57 7.9 46.2 -84.4 -3.323
20:06 1027 30.33 856 25.28 16 60.8 59 8 46.4 -84.4 -3.323
20:07 1027 30.33 856 25.28 15.8 60.4 59 7.8 46 -84.5 -3.327
20:08 1027 30.33 856 25.28 15.6 60.2 59 7.7 45.9 -84.5 -3.327
20:09 1027 30.33 856 25.28 15.6 60 62 8.3 47 -84.6 -3.331
20:10 1027 30.33 856 25.28 15.4 59.6 60 7.7 45.9 -84.6 -3.331
20:11 1027 30.33 856 25.28 15.4 59.6 62 8.1 46.5 -84.6 -3.331
20:12 1027 30.33 856 25.28 15.3 59.5 61 7.8 46 -84.6 -3.331
20:13 1027 30.33 856 25.28 15.2 59.3 61 7.7 45.9 -84.7 -3.335
20:14 1027 30.33 856 25.28 15.1 59.1 59 7.1 44.8 -84.7 -3.335
20:15 1027 30.33 856 25.28 15.1 59.1 61 7.7 45.9 -84.7 -3.335
20:16 1027 30.33 856 25.28 15 58.9 61 7.6 45.7 -84.8 -3.339
20:17 1027 30.33 856 25.28 14.9 58.8 60 7.2 44.9 -84.8 -3.339
20:18 1027 30.33 856 25.28 14.9 58.9 57 6.5 43.7 -84.8 -3.339
20:19 1027 30.33 856 25.28 15.3 59.5 57 6.8 44.2 -84.9 -3.343
20:20 1027 30.33 856 25.28 15.5 59.9 55 6.7 44 -84.9 -3.343
20:21 1027 30.33 856 25.28 15.6 60 56 6.8 44.2 -84.9 -3.343
20:22 1027 30.33 856 25.28 15.7 60.3 52 5.9 42.6 -85 -3.346
20:23 1027 30.33 856 25.28 16 60.8 46 4.5 40.1 -85 -3.346
20:24 1027 30.33 856 25.28 16.2 61.2 50 5.9 42.6 -85.1 -3.35
20:25 1027 30.33 856 25.28 16.3 61.3 54 7 44.6 -85.1 -3.35
20:26 1027 30.33 856 25.28 16 60.8 54 6.8 44.3 -85.1 -3.35
20:27 1027 30.33 856 25.28 15.8 60.4 55 6.9 44.5 -85.2 -3.354
20:28 1027 30.33 856 25.28 15.6 60 56 6.9 44.4 -85.2 -3.354
20:29 1027 30.33 856 25.28 15.5 60 52 5.9 42.5 -85.2 -3.354
20:30 1027 30.33 856 25.28 15.6 60.2 50 5.3 41.5 -85.2 -3.354
20:31 1027 30.33 856 25.28 15.9 60.7 53 6.5 43.7 -85.3 -3.358
20:32 1027 30.33 856 25.28 16 60.8 54 6.9 44.4 -85.3 -3.358
20:33 1027 30.33 856 25.28 15.8 60.5 57 7.5 45.5 -85.3 -3.358
20:34 1027 30.33 856 25.28 15.6 60.2 55 6.8 44.2 -85.4 -3.362
20:35 1027 30.33 856 25.28 15.5 59.9 57 7.1 44.7 -85.4 -3.362
20:36 1027 30.33 856 25.28 15.9 60.6 42 3 37.4 -85.4 -3.362
20:37 1027 30.33 857 25.31 16.7 62 45 4.8 40.6 -85.5 -3.366
20:38 1027 30.33 857 25.31 16.9 62.4 45 4.9 40.8 -85.5 -3.366
20:39 1027 30.33 857 25.31 17 62.6 44 4.7 40.5 -85.5 -3.366
20:40 1027 30.33 857 25.31 17.2 62.9 40 3.5 38.2 -85.6 -3.37
20:41 1027 30.33 857 25.31 17.4 63.4 41 4 39.3 -85.6 -3.37
20:42 1027 30.33 857 25.31 17.6 63.7 42 4.7 40.5 -85.6 -3.37
20:43 1027 30.33 857 25.31 17.5 63.6 43 5 41 -85.6 -3.37
20:44 1027 30.33 857 25.31 17.4 63.3 41 4.2 39.6 -85.6 -3.37
20:45 1027 30.33 857 25.31 17.5 63.4 39 3.7 38.6 -85.7 -3.374
20:46 1027 30.33 857 25.31 17.6 63.8 44 5.4 41.8 -85.7 -3.374
20:47 1027 30.33 857 25.31 17.5 63.5 44 5.1 41.2 -85.7 -3.374
20:48 1028 30.36 857 25.31 17.2 62.9 44 5 40.9 -85.7 -3.374
20:49 1028 30.36 857 25.31 16.9 62.5 49 6.2 43.2 -85.8 -3.378
20:50 1028 30.36 857 25.31 16.5 61.7 49 5.9 42.6 -85.8 -3.378
20:51 1028 30.36 857 25.31 16.4 61.4 47 5.1 41.2 -85.8 -3.378
20:52 1028 30.36 857 25.31 16.4 61.5 49 5.7 42.3 -85.8 -3.378
20:53 1028 30.36 857 25.31 16.2 61.2 47 4.9 40.8 -85.8 -3.378
20:54 1028 30.36 857 25.31 16.6 61.8 47 5.4 41.7 -85.8 -3.378
20:55 1028 30.36 857 25.31 16.8 62.2 49 6.2 43.2 -85.8 -3.378
20:56 1028 30.36 857 25.31 16.8 62.3 51 6.8 44.3 -85.9 -3.382
20:57 1028 30.36 857 25.31 16.6 61.9 52 6.8 44.3 -85.9 -3.382
20:58 1028 30.36 857 25.31 16.4 61.5 52 6.7 44.1 -85.9 -3.382
20:59 1028 30.36 857 25.31 16.3 61.3 53 6.7 44.1 -85.9 -3.382
21:00 1028 30.36 857 25.31 16.1 61.1 52 6.3 43.4 -85.9 -3.382
21:01 1028 30.36 857 25.31 16.1 61 52 6.2 43.2 -85.9 -3.382
21:02 1028 30.36 857 25.31 16.2 61.1 52 6.3 43.3 -85.9 -3.382
21:03 1028 30.36 857 25.31 16.2 61.1 53 6.6 43.9 -85.9 -3.382
21:04 1028 30.36 857 25.31 16.1 61 54 6.9 44.4 -86 -3.386
21:05 1028 30.36 857 25.31 16 60.8 54 6.9 44.4 -86 -3.386
21:06 1028 30.36 857 25.31 15.9 60.5 55 7 44.7 -86 -3.386
21:07 1028 30.36 857 25.31 15.8 60.4 55 6.9 44.3 -86 -3.386
21:08 1028 30.36 857 25.31 15.7 60.2 55 6.6 44 -86 -3.386
21:09 1028 30.36 857 25.31 15.6 60.1 54 6.4 43.5 -86 -3.386
21:10 1028 30.36 857 25.31 15.6 60.1 52 5.9 42.7 -86 -3.386
21:11 1028 30.36 857 25.31 15.8 60.4 52 5.9 42.7 -86 -3.386
21:12 1028 30.36 857 25.31 15.9 60.6 51 5.9 42.6 -86.1 -3.39
21:13 1028 30.36 857 25.31 16 60.9 50 5.9 42.5 -86.1 -3.39
21:14 1028 30.36 857 25.31 16.1 61 51 5.9 42.7 -86.1 -3.39
21:15 1028 30.36 857 25.31 16.2 61.1 51 6 42.8 -86.1 -3.39
21:16 1028 30.36 857 25.31 16.2 61.1 51 6.1 43.1 -86.1 -3.39
21:17 1028 30.36 857 25.31 16.2 61.1 52 6.4 43.5 -86.1 -3.39
21:18 1028 30.36 857 25.31 16.1 60.9 52 6.2 43.1 -86.1 -3.39
21:19 1028 30.36 857 25.31 16 60.9 50 5.8 42.5 -86.1 -3.39
21:20 1028 30.36 857 25.31 16.1 61 50 5.8 42.5 -86.1 -3.39
21:21 1028 30.36 857 25.31 16.1 61 50 5.9 42.6 -86.1 -3.39
21:22 1028 30.36 857 25.31 16.1 61 50 5.9 42.5 -86.1 -3.39
21:23 1028 30.36 857 25.31 16.1 60.9 49 5.5 41.9 -86.2 -3.394
21:24 1028 30.36 857 25.31 16.1 61 49 5.4 41.8 -86.2 -3.394
21:25 1028 30.36 857 25.31 16.2 61.1 48 5.3 41.5 -86.2 -3.394
21:26 1028 30.36 857 25.31 16.3 61.3 49 5.5 41.9 -86.2 -3.394
21:27 1028 30.36 857 25.31 16.3 61.3 48 5.5 41.8 -86.2 -3.394
21:28 1028 30.36 857 25.31 16.3 61.3 48 5.5 41.9 -86.2 -3.394
21:29 1028 30.36 857 25.31 16.3 61.3 47 5 40.9 -86.3 -3.398
21:30 1028 30.36 857 25.31 16.4 61.4 45 4.6 40.3 -86.3 -3.398
21:31 1028 30.36 857 25.31 16.5 61.7 46 5.1 41.2 -86.3 -3.398
21:32 1028 30.36 857 25.31 16.6 61.8 47 5.4 41.8 -86.3 -3.398
21:33 1028 30.36 857 25.31 16.5 61.8 47 5.3 41.5 -86.3 -3.398
21:34 1028 30.36 857 25.31 16.4 61.6 47 5.1 41.2 -86.3 -3.398
21:35 1028 30.36 857 25.31 16.4 61.4 47 5.2 41.3 -86.3 -3.398
21:36 1028 30.36 857 25.31 16.3 61.4 46 4.9 40.8 -86.3 -3.398
21:37 1028 30.36 857 25.31 16.3 61.4 46 4.9 40.8 -86.3 -3.398
21:38 1028 30.36 857 25.31 16.3 61.4 47 5.1 41.2 -86.3 -3.398
21:39 1028 30.36 857 25.31 16.2 61.2 48 5.3 41.6 -86.3 -3.398
21:40 1028 30.36 857 25.31 16.1 60.9 49 5.3 41.6 -86.3 -3.398
21:41 1028 30.36 857 25.31 15.9 60.6 49 5.2 41.4 -86.4 -3.402
21:42 1028 30.36 857 25.31 15.7 60.3 49 5.1 41.2 -86.4 -3.402
21:43 1028 30.36 857 25.31 15.5 60 48 4.8 40.7 -86.4 -3.402
21:44 1028 30.36 857 25.31 15.5 59.9 48 4.5 40.2 -86.4 -3.402
21:45 1028 30.36 857 25.31 15.5 59.9 47 4.4 39.9 -86.4 -3.402
21:46 1028 30.36 857 25.31 15.6 60.1 47 4.3 39.8 -86.4 -3.402
21:47 1028 30.36 857 25.31 15.6 60.2 47 4.3 39.8 -86.4 -3.402
21:48 1028 30.36 857 25.31 15.7 60.2 46 4.2 39.5 -86.5 -3.406
21:49 1028 30.36 857 25.31 15.7 60.3 46 4.1 39.4 -86.5 -3.406
21:50 1028 30.36 857 25.31 15.7 60.3 46 4.2 39.6 -86.5 -3.406
21:51 1028 30.36 857 25.31 15.7 60.2 46 4.3 39.8 -86.5 -3.406
21:52 1028 30.36 857 25.31 15.6 60 48 4.6 40.4 -86.5 -3.406
21:53 1028 30.36 857 25.31 15.3 59.6 49 4.8 40.7 -86.5 -3.406
21:54 1028 30.36 857 25.31 15 59 50 4.8 40.7 -86.5 -3.406
21:55 1028 30.36 857 25.31 14.7 58.5 51 4.9 40.8 -86.5 -3.406
21:56 1028 30.36 857 25.31 14.5 58 51 4.6 40.3 -86.5 -3.406
21:57 1028 30.36 857 25.31 14.4 57.8 52 4.6 40.2 -86.6 -3.409
21:58 1028 30.36 857 25.31 14.3 57.7 52 4.6 40.3 -86.6 -3.409
21:59 1028 30.36 857 25.31 14.2 57.5 52 4.5 40.1 -86.6 -3.409
22:00 1028 30.36 857 25.31 14.1 57.4 52 4.4 39.9 -86.6 -3.409
22:01 1028 30.36 857 25.31 14.1 57.4 52 4.4 39.9 -86.6 -3.409
22:02 1028 30.36 857 25.31 14.1 57.3 51 4.3 39.8 -86.6 -3.409
22:03 1028 30.36 857 25.31 14.1 57.4 52 4.5 40.1 -86.7 -3.413
22:04 1028 30.36 857 25.31 14.1 57.3 52 4.4 39.9 -86.7 -3.413
22:05 1028 30.36 857 25.31 14.1 57.3 52 4.3 39.8 -86.7 -3.413
22:06 1028 30.36 857 25.31 14.1 57.3 52 4.3 39.8 -86.7 -3.413
22:07 1028 30.36 857 25.31 14.1 57.3 52 4.3 39.8 -86.7 -3.413
22:08 1028 30.36 857 25.31 14.1 57.4 52 4.4 40 -86.7 -3.413
22:09 1028 30.36 857 25.31 14.1 57.4 52 4.4 39.9 -86.7 -3.413
22:10 1028 30.36 857 25.31 14.1 57.4 51 4.3 39.7 -86.8 -3.417
22:11 1028 30.36 857 25.31 14.1 57.4 51 4.3 39.8 -86.8 -3.417
22:12 1028 30.36 857 25.31 14.1 57.4 51 4.1 39.4 -86.8 -3.417
22:13 1028 30.36 857 25.31 14.2 57.5 51 4.2 39.6 -86.8 -3.417
22:14 1028 30.36 857 25.31 14.2 57.6 52 4.5 40.1 -86.8 -3.417
22:15 1028 30.36 857 25.31 14.2 57.5 51 4.4 39.8 -86.9 -3.421
22:16 1028 30.36 857 25.31 14.2 57.5 51 4.4 39.8 -86.9 -3.421
22:17 1028 30.36 857 25.31 14.2 57.5 52 4.4 39.9 -86.9 -3.421
22:18 1028 30.36 857 25.31 14.1 57.4 52 4.6 40.2 -86.9 -3.421
22:19 1028 30.36 857 25.31 14.1 57.3 52 4.5 40 -86.9 -3.421
22:20 1028 30.36 857 25.31 14.1 57.3 50 4 39.2 -86.9 -3.421
22:21 1028 30.36 857 25.31 14.3 57.8 49 3.8 38.8 -86.9 -3.421
22:22 1028 30.36 857 25.31 14.7 58.5 48 3.9 39.1 -86.9 -3.421
22:23 1028 30.36 857 25.31 15 58.9 47 3.9 39 -86.9 -3.421
22:24 1028 30.36 857 25.31 15.3 59.5 47 4.1 39.4 -86.9 -3.421
22:25 1028 30.36 857 25.31 15.4 59.8 47 4.2 39.5 -87 -3.425
22:26 1028 30.36 857 25.31 15.5 59.9 46 4.1 39.4 -87 -3.425
22:27 1028 30.36 857 25.31 15.6 60 46 4.1 39.3 -87 -3.425
22:28 1028 30.36 857 25.31 15.6 60.1 46 4 39.2 -87 -3.425
22:29 1028 30.36 857 25.31 15.7 60.2 45 3.7 38.7 -87 -3.425
22:30 1028 30.36 857 25.31 15.8 60.4 45 3.9 39.1 -87 -3.425
22:31 1028 30.36 857 25.31 15.9 60.5 45 3.9 39 -87 -3.425
22:32 1028 30.36 857 25.31 15.9 60.7 45 4 39.3 -87.1 -3.429
22:33 1028 30.36 857 25.31 15.9 60.7 45 4 39.3 -87.1 -3.429
22:34 1028 30.36 857 25.31 16 60.7 44 3.8 38.9 -87.1 -3.429
22:35 1028 30.36 858 25.34 16 60.8 44 3.8 38.8 -87.1 -3.429
22:36 1028 30.36 858 25.34 16.1 60.9 43 3.6 38.5 -87.1 -3.429
22:37 1028 30.36 858 25.34 16.2 61.2 43 3.7 38.6 -87.1 -3.429
22:38 1028 30.36 857 25.31 16.2 61.2 43 3.7 38.6 -87.1 -3.429
22:39 1028 30.36 857 25.31 16.3 61.3 43 3.8 38.9 -87.1 -3.429
22:40 1028 30.36 857 25.31 16.3 61.3 43 3.7 38.7 -87.1 -3.429
22:41 1028 30.36 857 25.31 16.2 61.2 43 3.9 39 -87.1 -3.429
22:42 1028 30.36 858 25.34 16.2 61.1 44 3.9 39 -87.1 -3.429
22:43 1028 30.36 858 25.34 16.1 61 44 4 39.2 -87.1 -3.429
22:44 1028 30.36 857 25.31 16.1 60.9 45 4.2 39.5 -87.1 -3.429
22:45 1028 30.36 857 25.31 15.9 60.6 46 4.3 39.7 -87.1 -3.429
22:46 1028 30.36 857 25.31 15.7 60.2 45 3.8 38.9 -87.1 -3.429
22:47 1028 30.36 857 25.31 15.6 60.2 46 4 39.2 -87.1 -3.429
22:48 1028 30.36 857 25.31 15.6 60 45 3.9 39 -87.1 -3.429
22:49 1028 30.36 857 25.31 15.6 60.1 44 3.4 38.1 -87.1 -3.429
22:50 1028 30.36 857 25.31 15.8 60.4 42 3.1 37.6 -87.1 -3.429
22:51 1028 30.36 857 25.31 16.1 60.9 41 3 37.3 -87.1 -3.429
22:52 1028 30.36 857 25.31 16.2 61.2 41 3 37.4 -87.1 -3.429
22:53 1028 30.36 857 25.31 16.4 61.5 41 3.1 37.5 -87.1 -3.429
22:54 1028 30.36 858 25.34 16.5 61.6 41 3.3 38 -87.1 -3.429
22:55 1028 30.36 858 25.34 16.4 61.4 42 3.5 38.4 -87.1 -3.429
22:56 1028 30.36 857 25.31 16.2 61.2 43 3.6 38.5 -87.1 -3.429
22:57 1028 30.36 858 25.34 16.1 61 44 3.8 38.8 -87.1 -3.429
22:58 1028 30.36 857 25.31 15.9 60.7 44 3.9 38.9 -87.2 -3.433
22:59 1028 30.36 857 25.31 15.8 60.4 44 3.8 38.9 -87.2 -3.433
23:00 1028 30.36 857 25.31 15.7 60.2 45 4 39.2 -87.2 -3.433
23:01 1028 30.36 857 25.31 15.6 60 44 3.4 38.2 -87.2 -3.433
23:02 1028 30.36 857 25.31 15.6 60.1 45 3.8 38.8 -87.2 -3.433
23:03 1028 30.36 857 25.31 15.5 59.9 46 4 39.3 -87.2 -3.433
23:04 1028 30.36 857 25.31 15.4 59.7 46 3.9 39.1 -87.2 -3.433
23:05 1028 30.36 857 25.31 15.3 59.6 46 3.8 38.9 -87.2 -3.433
23:06 1028 30.36 857 25.31 15.3 59.5 46 3.8 38.8 -87.2 -3.433
23:07 1028 30.36 857 25.31 15.2 59.4 46 3.8 38.9 -87.2 -3.433
23:08 1028 30.36 857 25.31 15.1 59.2 47 4 39.1 -87.2 -3.433
23:09 1028 30.36 857 25.31 14.9 58.8 49 4.3 39.8 -87.2 -3.433
23:10 1028 30.36 857 25.31 14.6 58.3 49 4.2 39.6 -87.2 -3.433
23:11 1028 30.36 857 25.31 14.5 58.1 49 4.1 39.4 -87.2 -3.433
23:12 1028 30.36 857 25.31 14.5 58.1 49 4.1 39.3 -87.2 -3.433
23:13 1028 30.36 857 25.31 14.6 58.3 49 4.1 39.4 -87.2 -3.433
23:14 1028 30.36 857 25.31 14.7 58.4 47 3.6 38.6 -87.2 -3.433
23:15 1028 30.36 857 25.31 14.8 58.7 46 3.5 38.4 -87.2 -3.433
23:16 1028 30.36 857 25.31 15.1 59.2 45 3.5 38.4 -87.2 -3.433
23:17 1028 30.36 857 25.31 15.4 59.6 45 3.5 38.3 -87.2 -3.433
23:18 1028 30.36 858 25.34 15.6 60 45 3.7 38.7 -87.2 -3.433
23:19 1028 30.36 858 25.34 15.7 60.2 45 3.7 38.7 -87.3 -3.437
23:20 1028 30.36 858 25.34 15.7 60.3 45 3.8 38.8 -87.3 -3.437
23:21 1028 30.36 857 25.31 15.7 60.3 45 3.8 38.8 -87.3 -3.437
23:22 1028 30.36 857 25.31 15.8 60.4 45 3.8 38.8 -87.3 -3.437
23:23 1028 30.36 857 25.31 15.7 60.3 45 4 39.1 -87.3 -3.437
23:24 1028 30.36 857 25.31 15.7 60.2 45 4 39.2 -87.3 -3.437
23:25 1028 30.36 857 25.31 15.5 59.9 47 4.3 39.7 -87.3 -3.437
23:26 1028 30.36 857 25.31 15.2 59.4 47 4 39.2 -87.3 -3.437
23:27 1028 30.36 857 25.31 15.1 59.1 47 4 39.2 -87.3 -3.437
23:28 1028 30.36 857 25.31 14.9 58.8 47 3.9 39.1 -87.3 -3.437
23:29 1028 30.36 857 25.31 14.9 58.7 48 3.9 39 -87.4 -3.441
23:30 1028 30.36 857 25.31 14.8 58.6 47 3.7 38.6 -87.4 -3.441
23:31 1028 30.36 857 25.31 14.8 58.7 47 3.8 38.9 -87.4 -3.441
23:32 1028 30.36 857 25.31 14.8 58.6 48 4 39.2 -87.4 -3.441
23:33 1028 30.36 857 25.31 14.5 58.1 49 4.1 39.4 -87.4 -3.441
23:34 1028 30.36 857 25.31 14.3 57.8 49 3.9 39 -87.4 -3.441
23:35 1028 30.36 857 25.31 14.2 57.5 50 4 39.1 -87.4 -3.441
23:36 1028 30.36 857 25.31 14.1 57.4 49 3.7 38.7 -87.4 -3.441
23:37 1028 30.36 857 25.31 14.1 57.3 50 3.9 39.1 -87.4 -3.441
23:38 1028 30.36 857 25.31 13.9 57.1 50 3.7 38.6 -87.4 -3.441
23:39 1028 30.36 857 25.31 14.1 57.4 48 3.5 38.2 -87.4 -3.441
23:40 1028 30.36 857 25.31 14.4 57.8 48 3.5 38.2 -87.4 -3.441
23:41 1028 30.36 857 25.31 14.5 58.2 47 3.5 38.3 -87.4 -3.441
23:42 1028 30.36 857 25.31 14.6 58.3 48 3.9 39 -87.4 -3.441
23:43 1028 30.36 857 25.31 14.4 58 49 3.8 38.9 -87.4 -3.441
23:44 1028 30.36 857 25.31 14.3 57.7 50 4.2 39.6 -87.4 -3.441
23:45 1028 30.36 858 25.34 14.2 57.5 51 4.2 39.5 -87.4 -3.441
23:46 1028 30.36 858 25.34 14 57.1 52 4.2 39.6 -87.4 -3.441
23:47 1028 30.36 857 25.31 13.8 56.9 52 4.2 39.6 -87.4 -3.441
23:48 1028 30.36 858 25.34 13.7 56.6 53 4.2 39.6 -87.5 -3.445
23:49 1028 30.36 858 25.34 13.6 56.5 52 4.1 39.4 -87.5 -3.445
23:50 1028 30.36 857 25.31 13.7 56.6 51 3.7 38.7 -87.5 -3.445
23:51 1028 30.36 857 25.31 13.8 56.8 51 3.8 38.8 -87.5 -3.445
23:52 1028 30.36 857 25.31 13.9 57 50 3.7 38.7 -87.5 -3.445
23:53 1028 30.36 857 25.31 14 57.2 50 4 39.1 -87.5 -3.445
23:54 1028 30.36 857 25.31 14.1 57.3 50 3.7 38.7 -87.5 -3.445
23:55 1028 30.36 857 25.31 14.1 57.5 49 3.6 38.5 -87.5 -3.445
23:56 1028 30.36 857 25.31 14.2 57.6 51 4.3 39.7 -87.6 -3.449
23:57 1028 30.36 857 25.31 14 57.2 52 4.3 39.8 -87.5 -3.445
23:58 1028 30.36 857 25.31 13.8 56.9 52 4.1 39.4 -87.6 -3.449
23:59 1028 30.36 857 25.31 13.8 56.8 52 4.1 39.4 -87.6 -3.449
24:00 1028 30.36 857 25.31 13.7 56.7 53 4.4 39.8 -87.6 -3.449